<?xml version="1.0" encoding="utf-8"?>
<gpx xmlns:xsi="http://www.w3.org/2001/XMLSchema-instance" xmlns:xsd="http://www.w3.org/2001/XMLSchema" version="1.1" creator="Shapelink.com" xmlns="http://www.topografix.com/GPX/1/1" xmlns:gpxtpx="http://www.garmin.com/xmlschemas/TrackPointExtension/v1">
  <metadata>
    <name>Längdskidåkning - Skate 19.95 km, 2011-02-04</name>
    <desc></desc>
    <author><name>Alexander Engvall</name></author> 
    <time>2011-02-04T18:15:37Z</time>
  </metadata>
  <trk>
    <name>Längdskidåkning - Skate 19.95 km, 2011-02-04</name>
    <trkseg>
      <trkpt lat="59.5484134" lon="17.4931564">
        <ele>29.4575</ele>
        <time>2011-02-04T18:15:37Z</time>
      </trkpt>
      <trkpt lat="59.5483931" lon="17.4931914">
        <ele>29.9381</ele>
        <time>2011-02-04T18:15:40Z</time>
      </trkpt>
      <trkpt lat="59.5482925" lon="17.4932815">
        <ele>30.8995</ele>
        <time>2011-02-04T18:15:44Z</time>
      </trkpt>
      <trkpt lat="59.5482541" lon="17.4933165">
        <ele>31.3801</ele>
        <time>2011-02-04T18:15:45Z</time>
      </trkpt>
      <trkpt lat="59.54803" lon="17.4935523">
        <ele>32.8223</ele>
        <time>2011-02-04T18:15:50Z</time>
      </trkpt>
      <trkpt lat="59.5478087" lon="17.4937088">
        <ele>33.3029</ele>
        <time>2011-02-04T18:15:54Z</time>
      </trkpt>
      <trkpt lat="59.5476682" lon="17.4937436">
        <ele>32.3416</ele>
        <time>2011-02-04T18:15:57Z</time>
      </trkpt>
      <trkpt lat="59.5475326" lon="17.4937485">
        <ele>32.3416</ele>
        <time>2011-02-04T18:16:00Z</time>
      </trkpt>
      <trkpt lat="59.5473588" lon="17.4937493">
        <ele>31.3801</ele>
        <time>2011-02-04T18:16:04Z</time>
      </trkpt>
      <trkpt lat="59.5471872" lon="17.4937084">
        <ele>29.4575</ele>
        <time>2011-02-04T18:16:08Z</time>
      </trkpt>
      <trkpt lat="59.5470207" lon="17.4935631">
        <ele>29.9381</ele>
        <time>2011-02-04T18:16:13Z</time>
      </trkpt>
      <trkpt lat="59.5469445" lon="17.4934287">
        <ele>29.9381</ele>
        <time>2011-02-04T18:16:16Z</time>
      </trkpt>
      <trkpt lat="59.5468257" lon="17.4932525">
        <ele>29.9381</ele>
        <time>2011-02-04T18:16:21Z</time>
      </trkpt>
      <trkpt lat="59.5467224" lon="17.4931149">
        <ele>29.9381</ele>
        <time>2011-02-04T18:16:25Z</time>
      </trkpt>
      <trkpt lat="59.5465868" lon="17.4928669">
        <ele>29.4575</ele>
        <time>2011-02-04T18:16:30Z</time>
      </trkpt>
      <trkpt lat="59.5464498" lon="17.4925359">
        <ele>27.5349</ele>
        <time>2011-02-04T18:16:35Z</time>
      </trkpt>
      <trkpt lat="59.5463525" lon="17.4923096">
        <ele>26.5736</ele>
        <time>2011-02-04T18:16:39Z</time>
      </trkpt>
      <trkpt lat="59.5462896" lon="17.4920626">
        <ele>27.0543</ele>
        <time>2011-02-04T18:16:43Z</time>
      </trkpt>
      <trkpt lat="59.5462703" lon="17.4919495">
        <ele>27.0543</ele>
        <time>2011-02-04T18:16:45Z</time>
      </trkpt>
      <trkpt lat="59.5461984" lon="17.4916817">
        <ele>27.5349</ele>
        <time>2011-02-04T18:16:49Z</time>
      </trkpt>
      <trkpt lat="59.5461491" lon="17.4914898">
        <ele>28.0155</ele>
        <time>2011-02-04T18:16:52Z</time>
      </trkpt>
      <trkpt lat="59.546101" lon="17.4911677">
        <ele>29.4575</ele>
        <time>2011-02-04T18:16:56Z</time>
      </trkpt>
      <trkpt lat="59.5460412" lon="17.4909671">
        <ele>29.9381</ele>
        <time>2011-02-04T18:16:59Z</time>
      </trkpt>
      <trkpt lat="59.5458217" lon="17.490838">
        <ele>30.8995</ele>
        <time>2011-02-04T18:17:04Z</time>
      </trkpt>
      <trkpt lat="59.5456792" lon="17.4907421">
        <ele>31.3801</ele>
        <time>2011-02-04T18:17:07Z</time>
      </trkpt>
      <trkpt lat="59.5454724" lon="17.4905226">
        <ele>32.8223</ele>
        <time>2011-02-04T18:17:12Z</time>
      </trkpt>
      <trkpt lat="59.5453684" lon="17.4903982">
        <ele>32.3416</ele>
        <time>2011-02-04T18:17:15Z</time>
      </trkpt>
      <trkpt lat="59.5453172" lon="17.4902842">
        <ele>31.3801</ele>
        <time>2011-02-04T18:17:17Z</time>
      </trkpt>
      <trkpt lat="59.5452808" lon="17.4901128">
        <ele>31.3801</ele>
        <time>2011-02-04T18:17:19Z</time>
      </trkpt>
      <trkpt lat="59.5453058" lon="17.489759">
        <ele>32.8223</ele>
        <time>2011-02-04T18:17:23Z</time>
      </trkpt>
      <trkpt lat="59.5453953" lon="17.4893601">
        <ele>35.2255</ele>
        <time>2011-02-04T18:17:28Z</time>
      </trkpt>
      <trkpt lat="59.54556" lon="17.4891524">
        <ele>40.5128</ele>
        <time>2011-02-04T18:17:34Z</time>
      </trkpt>
      <trkpt lat="59.5456916" lon="17.4892213">
        <ele>39.5513</ele>
        <time>2011-02-04T18:17:39Z</time>
      </trkpt>
      <trkpt lat="59.5457417" lon="17.4892761">
        <ele>39.5513</ele>
        <time>2011-02-04T18:17:41Z</time>
      </trkpt>
      <trkpt lat="59.5459777" lon="17.4893763">
        <ele>39.5513</ele>
        <time>2011-02-04T18:17:47Z</time>
      </trkpt>
      <trkpt lat="59.5461372" lon="17.489213">
        <ele>40.0321</ele>
        <time>2011-02-04T18:17:51Z</time>
      </trkpt>
      <trkpt lat="59.5463014" lon="17.4890208">
        <ele>40.9934</ele>
        <time>2011-02-04T18:17:56Z</time>
      </trkpt>
      <trkpt lat="59.5463345" lon="17.4889779">
        <ele>40.5128</ele>
        <time>2011-02-04T18:17:57Z</time>
      </trkpt>
      <trkpt lat="59.5464874" lon="17.4888582">
        <ele>40.5128</ele>
        <time>2011-02-04T18:18:01Z</time>
      </trkpt>
      <trkpt lat="59.5466094" lon="17.4888379">
        <ele>39.0707</ele>
        <time>2011-02-04T18:18:04Z</time>
      </trkpt>
      <trkpt lat="59.5467805" lon="17.4889232">
        <ele>38.1094</ele>
        <time>2011-02-04T18:18:09Z</time>
      </trkpt>
      <trkpt lat="59.5468934" lon="17.4889455">
        <ele>38.5901</ele>
        <time>2011-02-04T18:18:13Z</time>
      </trkpt>
      <trkpt lat="59.5469862" lon="17.4889386">
        <ele>38.5901</ele>
        <time>2011-02-04T18:18:17Z</time>
      </trkpt>
      <trkpt lat="59.5471171" lon="17.4889672">
        <ele>40.0321</ele>
        <time>2011-02-04T18:18:21Z</time>
      </trkpt>
      <trkpt lat="59.547313" lon="17.4890938">
        <ele>38.5901</ele>
        <time>2011-02-04T18:18:25Z</time>
      </trkpt>
      <trkpt lat="59.5473664" lon="17.4891413">
        <ele>38.1094</ele>
        <time>2011-02-04T18:18:26Z</time>
      </trkpt>
      <trkpt lat="59.5475954" lon="17.48917">
        <ele>39.0707</ele>
        <time>2011-02-04T18:18:31Z</time>
      </trkpt>
      <trkpt lat="59.5476311" lon="17.4891384">
        <ele>39.5513</ele>
        <time>2011-02-04T18:18:32Z</time>
      </trkpt>
      <trkpt lat="59.5478014" lon="17.4888607">
        <ele>41.474</ele>
        <time>2011-02-04T18:18:37Z</time>
      </trkpt>
      <trkpt lat="59.5478457" lon="17.4887021">
        <ele>41.9547</ele>
        <time>2011-02-04T18:18:39Z</time>
      </trkpt>
      <trkpt lat="59.5478947" lon="17.4885556">
        <ele>42.916</ele>
        <time>2011-02-04T18:18:41Z</time>
      </trkpt>
      <trkpt lat="59.5479529" lon="17.4884194">
        <ele>44.8386</ele>
        <time>2011-02-04T18:18:43Z</time>
      </trkpt>
      <trkpt lat="59.548087" lon="17.4882349">
        <ele>46.2806</ele>
        <time>2011-02-04T18:18:47Z</time>
      </trkpt>
      <trkpt lat="59.5482139" lon="17.48811">
        <ele>46.2806</ele>
        <time>2011-02-04T18:18:51Z</time>
      </trkpt>
      <trkpt lat="59.5483882" lon="17.4878971">
        <ele>45.7999</ele>
        <time>2011-02-04T18:18:56Z</time>
      </trkpt>
      <trkpt lat="59.5484302" lon="17.4878366">
        <ele>45.7999</ele>
        <time>2011-02-04T18:18:57Z</time>
      </trkpt>
      <trkpt lat="59.5485682" lon="17.4876456">
        <ele>45.7999</ele>
        <time>2011-02-04T18:19:00Z</time>
      </trkpt>
      <trkpt lat="59.5487127" lon="17.4872652">
        <ele>41.9547</ele>
        <time>2011-02-04T18:19:04Z</time>
      </trkpt>
      <trkpt lat="59.5487333" lon="17.4867253">
        <ele>36.6675</ele>
        <time>2011-02-04T18:19:08Z</time>
      </trkpt>
      <trkpt lat="59.548595" lon="17.4860719">
        <ele>34.2642</ele>
        <time>2011-02-04T18:19:14Z</time>
      </trkpt>
      <trkpt lat="59.5484667" lon="17.4857494">
        <ele>31.3801</ele>
        <time>2011-02-04T18:19:18Z</time>
      </trkpt>
      <trkpt lat="59.5482776" lon="17.4855078">
        <ele>29.9381</ele>
        <time>2011-02-04T18:19:23Z</time>
      </trkpt>
      <trkpt lat="59.5481246" lon="17.4854014">
        <ele>29.9381</ele>
        <time>2011-02-04T18:19:27Z</time>
      </trkpt>
      <trkpt lat="59.548016" lon="17.4853589">
        <ele>29.9381</ele>
        <time>2011-02-04T18:19:30Z</time>
      </trkpt>
      <trkpt lat="59.5478272" lon="17.4853713">
        <ele>30.4188</ele>
        <time>2011-02-04T18:19:35Z</time>
      </trkpt>
      <trkpt lat="59.5476699" lon="17.485351">
        <ele>30.8995</ele>
        <time>2011-02-04T18:19:39Z</time>
      </trkpt>
      <trkpt lat="59.5475252" lon="17.4852952">
        <ele>32.3416</ele>
        <time>2011-02-04T18:19:43Z</time>
      </trkpt>
      <trkpt lat="59.5474098" lon="17.4853388">
        <ele>32.8223</ele>
        <time>2011-02-04T18:19:47Z</time>
      </trkpt>
      <trkpt lat="59.5473213" lon="17.4854441">
        <ele>33.7834</ele>
        <time>2011-02-04T18:19:52Z</time>
      </trkpt>
      <trkpt lat="59.5472448" lon="17.4855589">
        <ele>34.2642</ele>
        <time>2011-02-04T18:19:56Z</time>
      </trkpt>
      <trkpt lat="59.5471063" lon="17.4857437">
        <ele>35.7061</ele>
        <time>2011-02-04T18:20:02Z</time>
      </trkpt>
      <trkpt lat="59.5469789" lon="17.4859507">
        <ele>36.1868</ele>
        <time>2011-02-04T18:20:06Z</time>
      </trkpt>
      <trkpt lat="59.5468462" lon="17.486092">
        <ele>36.1868</ele>
        <time>2011-02-04T18:20:11Z</time>
      </trkpt>
      <trkpt lat="59.5467389" lon="17.4862392">
        <ele>35.7061</ele>
        <time>2011-02-04T18:20:16Z</time>
      </trkpt>
      <trkpt lat="59.5465878" lon="17.4864535">
        <ele>36.6675</ele>
        <time>2011-02-04T18:20:21Z</time>
      </trkpt>
      <trkpt lat="59.5464174" lon="17.4866839">
        <ele>39.0707</ele>
        <time>2011-02-04T18:20:26Z</time>
      </trkpt>
      <trkpt lat="59.5461045" lon="17.4867318">
        <ele>39.0707</ele>
        <time>2011-02-04T18:20:30Z</time>
      </trkpt>
      <trkpt lat="59.5459689" lon="17.4867036">
        <ele>37.6287</ele>
        <time>2011-02-04T18:20:32Z</time>
      </trkpt>
      <trkpt lat="59.5458611" lon="17.4866266">
        <ele>36.6675</ele>
        <time>2011-02-04T18:20:34Z</time>
      </trkpt>
      <trkpt lat="59.5456119" lon="17.4862333">
        <ele>33.3029</ele>
        <time>2011-02-04T18:20:39Z</time>
      </trkpt>
      <trkpt lat="59.5454698" lon="17.4856724">
        <ele>33.7834</ele>
        <time>2011-02-04T18:20:44Z</time>
      </trkpt>
      <trkpt lat="59.5454315" lon="17.4851964">
        <ele>32.3416</ele>
        <time>2011-02-04T18:20:48Z</time>
      </trkpt>
      <trkpt lat="59.5454043" lon="17.4849395">
        <ele>31.3801</ele>
        <time>2011-02-04T18:20:50Z</time>
      </trkpt>
      <trkpt lat="59.5454192" lon="17.4844808">
        <ele>32.8223</ele>
        <time>2011-02-04T18:20:54Z</time>
      </trkpt>
      <trkpt lat="59.5455884" lon="17.484151">
        <ele>36.6675</ele>
        <time>2011-02-04T18:21:00Z</time>
      </trkpt>
      <trkpt lat="59.5456094" lon="17.484121">
        <ele>37.1481</ele>
        <time>2011-02-04T18:21:01Z</time>
      </trkpt>
      <trkpt lat="59.5457027" lon="17.4839975">
        <ele>38.5901</ele>
        <time>2011-02-04T18:21:04Z</time>
      </trkpt>
      <trkpt lat="59.5458356" lon="17.4838716">
        <ele>39.5513</ele>
        <time>2011-02-04T18:21:08Z</time>
      </trkpt>
      <trkpt lat="59.5459976" lon="17.4839785">
        <ele>38.1094</ele>
        <time>2011-02-04T18:21:13Z</time>
      </trkpt>
      <trkpt lat="59.5460515" lon="17.4842821">
        <ele>35.2255</ele>
        <time>2011-02-04T18:21:17Z</time>
      </trkpt>
      <trkpt lat="59.5460715" lon="17.4845048">
        <ele>32.8223</ele>
        <time>2011-02-04T18:21:21Z</time>
      </trkpt>
      <trkpt lat="59.5460817" lon="17.4845991">
        <ele>31.8607</ele>
        <time>2011-02-04T18:21:23Z</time>
      </trkpt>
      <trkpt lat="59.5461007" lon="17.4847455">
        <ele>32.3416</ele>
        <time>2011-02-04T18:21:26Z</time>
      </trkpt>
      <trkpt lat="59.5461737" lon="17.485004">
        <ele>32.8223</ele>
        <time>2011-02-04T18:21:32Z</time>
      </trkpt>
      <trkpt lat="59.546234" lon="17.485172">
        <ele>34.2642</ele>
        <time>2011-02-04T18:21:38Z</time>
      </trkpt>
      <trkpt lat="59.5462779" lon="17.4853253">
        <ele>35.2255</ele>
        <time>2011-02-04T18:21:43Z</time>
      </trkpt>
      <trkpt lat="59.5462848" lon="17.4855215">
        <ele>37.6287</ele>
        <time>2011-02-04T18:21:48Z</time>
      </trkpt>
      <trkpt lat="59.5463439" lon="17.4857614">
        <ele>39.0707</ele>
        <time>2011-02-04T18:21:53Z</time>
      </trkpt>
      <trkpt lat="59.5463703" lon="17.4858664">
        <ele>40.0321</ele>
        <time>2011-02-04T18:21:55Z</time>
      </trkpt>
      <trkpt lat="59.5464873" lon="17.486065">
        <ele>41.9547</ele>
        <time>2011-02-04T18:21:59Z</time>
      </trkpt>
      <trkpt lat="59.5466381" lon="17.4860933">
        <ele>42.4354</ele>
        <time>2011-02-04T18:22:02Z</time>
      </trkpt>
      <trkpt lat="59.5468273" lon="17.4859845">
        <ele>43.8773</ele>
        <time>2011-02-04T18:22:05Z</time>
      </trkpt>
      <trkpt lat="59.5471053" lon="17.4856741">
        <ele>42.916</ele>
        <time>2011-02-04T18:22:10Z</time>
      </trkpt>
      <trkpt lat="59.5473678" lon="17.4853258">
        <ele>41.474</ele>
        <time>2011-02-04T18:22:15Z</time>
      </trkpt>
      <trkpt lat="59.5475187" lon="17.4847938">
        <ele>39.5513</ele>
        <time>2011-02-04T18:22:19Z</time>
      </trkpt>
      <trkpt lat="59.5474007" lon="17.4843318">
        <ele>34.7449</ele>
        <time>2011-02-04T18:22:23Z</time>
      </trkpt>
      <trkpt lat="59.5472271" lon="17.4841353">
        <ele>34.7449</ele>
        <time>2011-02-04T18:22:26Z</time>
      </trkpt>
      <trkpt lat="59.5470145" lon="17.4841352">
        <ele>36.1868</ele>
        <time>2011-02-04T18:22:32Z</time>
      </trkpt>
      <trkpt lat="59.5469173" lon="17.4841851">
        <ele>37.6287</ele>
        <time>2011-02-04T18:22:37Z</time>
      </trkpt>
      <trkpt lat="59.5467814" lon="17.4842348">
        <ele>39.5513</ele>
        <time>2011-02-04T18:22:43Z</time>
      </trkpt>
      <trkpt lat="59.5466448" lon="17.4842234">
        <ele>40.0321</ele>
        <time>2011-02-04T18:22:47Z</time>
      </trkpt>
      <trkpt lat="59.5464884" lon="17.4841396">
        <ele>39.5513</ele>
        <time>2011-02-04T18:22:51Z</time>
      </trkpt>
      <trkpt lat="59.5462742" lon="17.4838826">
        <ele>36.1868</ele>
        <time>2011-02-04T18:22:55Z</time>
      </trkpt>
      <trkpt lat="59.5461284" lon="17.4837111">
        <ele>33.3029</ele>
        <time>2011-02-04T18:22:57Z</time>
      </trkpt>
      <trkpt lat="59.5460262" lon="17.4831933">
        <ele>33.3029</ele>
        <time>2011-02-04T18:23:01Z</time>
      </trkpt>
      <trkpt lat="59.5460962" lon="17.4827323">
        <ele>33.3029</ele>
        <time>2011-02-04T18:23:05Z</time>
      </trkpt>
      <trkpt lat="59.546148" lon="17.4825509">
        <ele>32.8223</ele>
        <time>2011-02-04T18:23:07Z</time>
      </trkpt>
      <trkpt lat="59.5462839" lon="17.4822644">
        <ele>33.3029</ele>
        <time>2011-02-04T18:23:11Z</time>
      </trkpt>
      <trkpt lat="59.5464168" lon="17.4822473">
        <ele>31.3801</ele>
        <time>2011-02-04T18:23:14Z</time>
      </trkpt>
      <trkpt lat="59.5465263" lon="17.4822369">
        <ele>30.4188</ele>
        <time>2011-02-04T18:23:17Z</time>
      </trkpt>
      <trkpt lat="59.5467441" lon="17.4821586">
        <ele>30.4188</ele>
        <time>2011-02-04T18:23:23Z</time>
      </trkpt>
      <trkpt lat="59.546922" lon="17.4820562">
        <ele>30.4188</ele>
        <time>2011-02-04T18:23:28Z</time>
      </trkpt>
      <trkpt lat="59.5470523" lon="17.4818917">
        <ele>32.8223</ele>
        <time>2011-02-04T18:23:33Z</time>
      </trkpt>
      <trkpt lat="59.5470897" lon="17.481839">
        <ele>33.7834</ele>
        <time>2011-02-04T18:23:35Z</time>
      </trkpt>
      <trkpt lat="59.5471" lon="17.4815657">
        <ele>34.2642</ele>
        <time>2011-02-04T18:23:40Z</time>
      </trkpt>
      <trkpt lat="59.5470718" lon="17.481202">
        <ele>33.7834</ele>
        <time>2011-02-04T18:23:45Z</time>
      </trkpt>
      <trkpt lat="59.5469422" lon="17.4810533">
        <ele>33.3029</ele>
        <time>2011-02-04T18:23:48Z</time>
      </trkpt>
      <trkpt lat="59.5466413" lon="17.4808529">
        <ele>34.2642</ele>
        <time>2011-02-04T18:23:53Z</time>
      </trkpt>
      <trkpt lat="59.5465103" lon="17.4806292">
        <ele>35.2255</ele>
        <time>2011-02-04T18:23:56Z</time>
      </trkpt>
      <trkpt lat="59.546358" lon="17.4803037">
        <ele>34.7449</ele>
        <time>2011-02-04T18:24:00Z</time>
      </trkpt>
      <trkpt lat="59.5462766" lon="17.4798645">
        <ele>36.1868</ele>
        <time>2011-02-04T18:24:06Z</time>
      </trkpt>
      <trkpt lat="59.5462541" lon="17.4796641">
        <ele>35.7061</ele>
        <time>2011-02-04T18:24:10Z</time>
      </trkpt>
      <trkpt lat="59.5463159" lon="17.4793369">
        <ele>37.1481</ele>
        <time>2011-02-04T18:24:15Z</time>
      </trkpt>
      <trkpt lat="59.5463934" lon="17.4790337">
        <ele>35.7061</ele>
        <time>2011-02-04T18:24:19Z</time>
      </trkpt>
      <trkpt lat="59.5464376" lon="17.4785462">
        <ele>35.2255</ele>
        <time>2011-02-04T18:24:25Z</time>
      </trkpt>
      <trkpt lat="59.5464572" lon="17.4783814">
        <ele>34.2642</ele>
        <time>2011-02-04T18:24:27Z</time>
      </trkpt>
      <trkpt lat="59.5465629" lon="17.4780658">
        <ele>36.1868</ele>
        <time>2011-02-04T18:24:33Z</time>
      </trkpt>
      <trkpt lat="59.5467219" lon="17.477811">
        <ele>35.7061</ele>
        <time>2011-02-04T18:24:37Z</time>
      </trkpt>
      <trkpt lat="59.5468438" lon="17.4773794">
        <ele>30.4188</ele>
        <time>2011-02-04T18:24:41Z</time>
      </trkpt>
      <trkpt lat="59.5468303" lon="17.4769215">
        <ele>31.3801</ele>
        <time>2011-02-04T18:24:45Z</time>
      </trkpt>
      <trkpt lat="59.546743" lon="17.4766669">
        <ele>32.3416</ele>
        <time>2011-02-04T18:24:49Z</time>
      </trkpt>
      <trkpt lat="59.5466449" lon="17.4765568">
        <ele>33.7834</ele>
        <time>2011-02-04T18:24:53Z</time>
      </trkpt>
      <trkpt lat="59.5465336" lon="17.4765755">
        <ele>34.2642</ele>
        <time>2011-02-04T18:24:58Z</time>
      </trkpt>
      <trkpt lat="59.5465013" lon="17.476672">
        <ele>34.2642</ele>
        <time>2011-02-04T18:25:00Z</time>
      </trkpt>
      <trkpt lat="59.5463423" lon="17.4769756">
        <ele>33.3029</ele>
        <time>2011-02-04T18:25:05Z</time>
      </trkpt>
      <trkpt lat="59.5461406" lon="17.4771079">
        <ele>33.7834</ele>
        <time>2011-02-04T18:25:09Z</time>
      </trkpt>
      <trkpt lat="59.5460826" lon="17.4771386">
        <ele>34.7449</ele>
        <time>2011-02-04T18:25:10Z</time>
      </trkpt>
      <trkpt lat="59.5459134" lon="17.4773183">
        <ele>35.7061</ele>
        <time>2011-02-04T18:25:13Z</time>
      </trkpt>
      <trkpt lat="59.5456564" lon="17.4773039">
        <ele>32.3416</ele>
        <time>2011-02-04T18:25:17Z</time>
      </trkpt>
      <trkpt lat="59.5455399" lon="17.4770166">
        <ele>29.9381</ele>
        <time>2011-02-04T18:25:20Z</time>
      </trkpt>
      <trkpt lat="59.5455431" lon="17.4766786">
        <ele>28.4962</ele>
        <time>2011-02-04T18:25:23Z</time>
      </trkpt>
      <trkpt lat="59.5455373" lon="17.476169">
        <ele>24.651</ele>
        <time>2011-02-04T18:25:28Z</time>
      </trkpt>
      <trkpt lat="59.5454436" lon="17.4758274">
        <ele>22.7283</ele>
        <time>2011-02-04T18:25:32Z</time>
      </trkpt>
      <trkpt lat="59.5454363" lon="17.4753661">
        <ele>23.209</ele>
        <time>2011-02-04T18:25:37Z</time>
      </trkpt>
      <trkpt lat="59.5454694" lon="17.4752055">
        <ele>22.7283</ele>
        <time>2011-02-04T18:25:39Z</time>
      </trkpt>
      <trkpt lat="59.5456923" lon="17.4746964">
        <ele>21.767</ele>
        <time>2011-02-04T18:25:45Z</time>
      </trkpt>
      <trkpt lat="59.5457304" lon="17.4746267">
        <ele>22.2476</ele>
        <time>2011-02-04T18:25:46Z</time>
      </trkpt>
      <trkpt lat="59.5459175" lon="17.4744187">
        <ele>22.7283</ele>
        <time>2011-02-04T18:25:51Z</time>
      </trkpt>
      <trkpt lat="59.5460132" lon="17.4743027">
        <ele>24.1703</ele>
        <time>2011-02-04T18:25:54Z</time>
      </trkpt>
      <trkpt lat="59.5460833" lon="17.4740617">
        <ele>24.651</ele>
        <time>2011-02-04T18:25:59Z</time>
      </trkpt>
      <trkpt lat="59.5460254" lon="17.4737973">
        <ele>22.7283</ele>
        <time>2011-02-04T18:26:03Z</time>
      </trkpt>
      <trkpt lat="59.5460704" lon="17.4734194">
        <ele>22.7283</ele>
        <time>2011-02-04T18:26:06Z</time>
      </trkpt>
      <trkpt lat="59.54612" lon="17.4731838">
        <ele>23.209</ele>
        <time>2011-02-04T18:26:08Z</time>
      </trkpt>
      <trkpt lat="59.5461501" lon="17.4730828">
        <ele>24.651</ele>
        <time>2011-02-04T18:26:09Z</time>
      </trkpt>
      <trkpt lat="59.5462877" lon="17.4729108">
        <ele>24.651</ele>
        <time>2011-02-04T18:26:12Z</time>
      </trkpt>
      <trkpt lat="59.5463892" lon="17.4727717">
        <ele>28.4962</ele>
        <time>2011-02-04T18:26:15Z</time>
      </trkpt>
      <trkpt lat="59.5464563" lon="17.4726692">
        <ele>28.9769</ele>
        <time>2011-02-04T18:26:17Z</time>
      </trkpt>
      <trkpt lat="59.5465509" lon="17.4726029">
        <ele>28.9769</ele>
        <time>2011-02-04T18:26:20Z</time>
      </trkpt>
      <trkpt lat="59.5466695" lon="17.4726152">
        <ele>28.0155</ele>
        <time>2011-02-04T18:26:23Z</time>
      </trkpt>
      <trkpt lat="59.5469772" lon="17.4726938">
        <ele>27.5349</ele>
        <time>2011-02-04T18:26:28Z</time>
      </trkpt>
      <trkpt lat="59.5471788" lon="17.4726999">
        <ele>28.4962</ele>
        <time>2011-02-04T18:26:32Z</time>
      </trkpt>
      <trkpt lat="59.5473178" lon="17.4727523">
        <ele>27.0543</ele>
        <time>2011-02-04T18:26:36Z</time>
      </trkpt>
      <trkpt lat="59.5474543" lon="17.4728729">
        <ele>25.1317</ele>
        <time>2011-02-04T18:26:41Z</time>
      </trkpt>
      <trkpt lat="59.5475695" lon="17.4729878">
        <ele>25.6123</ele>
        <time>2011-02-04T18:26:46Z</time>
      </trkpt>
      <trkpt lat="59.5476662" lon="17.4731417">
        <ele>27.0543</ele>
        <time>2011-02-04T18:26:50Z</time>
      </trkpt>
      <trkpt lat="59.5477306" lon="17.4733674">
        <ele>28.9769</ele>
        <time>2011-02-04T18:26:54Z</time>
      </trkpt>
      <trkpt lat="59.5477647" lon="17.4735977">
        <ele>28.9769</ele>
        <time>2011-02-04T18:26:58Z</time>
      </trkpt>
      <trkpt lat="59.5478096" lon="17.4737543">
        <ele>28.9769</ele>
        <time>2011-02-04T18:27:01Z</time>
      </trkpt>
      <trkpt lat="59.5478482" lon="17.4740931">
        <ele>27.5349</ele>
        <time>2011-02-04T18:27:06Z</time>
      </trkpt>
      <trkpt lat="59.5478138" lon="17.474329">
        <ele>27.5349</ele>
        <time>2011-02-04T18:27:10Z</time>
      </trkpt>
      <trkpt lat="59.5477169" lon="17.4746031">
        <ele>25.6123</ele>
        <time>2011-02-04T18:27:15Z</time>
      </trkpt>
      <trkpt lat="59.5476012" lon="17.4747484">
        <ele>26.0929</ele>
        <time>2011-02-04T18:27:19Z</time>
      </trkpt>
      <trkpt lat="59.5475135" lon="17.4748264">
        <ele>26.5736</ele>
        <time>2011-02-04T18:27:23Z</time>
      </trkpt>
      <trkpt lat="59.5473562" lon="17.4749294">
        <ele>28.9769</ele>
        <time>2011-02-04T18:27:29Z</time>
      </trkpt>
      <trkpt lat="59.5472586" lon="17.4750132">
        <ele>31.3801</ele>
        <time>2011-02-04T18:27:33Z</time>
      </trkpt>
      <trkpt lat="59.5471329" lon="17.4752535">
        <ele>32.8223</ele>
        <time>2011-02-04T18:27:39Z</time>
      </trkpt>
      <trkpt lat="59.547038" lon="17.4754474">
        <ele>32.3416</ele>
        <time>2011-02-04T18:27:44Z</time>
      </trkpt>
      <trkpt lat="59.5469519" lon="17.47571">
        <ele>32.3416</ele>
        <time>2011-02-04T18:27:49Z</time>
      </trkpt>
      <trkpt lat="59.5468536" lon="17.4759938">
        <ele>32.8223</ele>
        <time>2011-02-04T18:27:54Z</time>
      </trkpt>
      <trkpt lat="59.5467483" lon="17.4761628">
        <ele>31.8607</ele>
        <time>2011-02-04T18:27:58Z</time>
      </trkpt>
      <trkpt lat="59.5467239" lon="17.4764698">
        <ele>31.8607</ele>
        <time>2011-02-04T18:28:02Z</time>
      </trkpt>
      <trkpt lat="59.5467882" lon="17.4768401">
        <ele>30.4188</ele>
        <time>2011-02-04T18:28:06Z</time>
      </trkpt>
      <trkpt lat="59.5468379" lon="17.4772453">
        <ele>28.4962</ele>
        <time>2011-02-04T18:28:09Z</time>
      </trkpt>
      <trkpt lat="59.5467878" lon="17.4776893">
        <ele>28.9769</ele>
        <time>2011-02-04T18:28:13Z</time>
      </trkpt>
      <trkpt lat="59.5467168" lon="17.4778982">
        <ele>29.9381</ele>
        <time>2011-02-04T18:28:18Z</time>
      </trkpt>
      <trkpt lat="59.5466982" lon="17.4779336">
        <ele>29.4575</ele>
        <time>2011-02-04T18:28:19Z</time>
      </trkpt>
      <trkpt lat="59.5465784" lon="17.4781307">
        <ele>33.3029</ele>
        <time>2011-02-04T18:28:25Z</time>
      </trkpt>
      <trkpt lat="59.5465224" lon="17.4782756">
        <ele>33.3029</ele>
        <time>2011-02-04T18:28:29Z</time>
      </trkpt>
      <trkpt lat="59.5464723" lon="17.4785922">
        <ele>30.8995</ele>
        <time>2011-02-04T18:28:33Z</time>
      </trkpt>
      <trkpt lat="59.5464738" lon="17.4790067">
        <ele>29.4575</ele>
        <time>2011-02-04T18:28:37Z</time>
      </trkpt>
      <trkpt lat="59.5464807" lon="17.4791107">
        <ele>29.4575</ele>
        <time>2011-02-04T18:28:38Z</time>
      </trkpt>
      <trkpt lat="59.5464649" lon="17.4793923">
        <ele>29.9381</ele>
        <time>2011-02-04T18:28:41Z</time>
      </trkpt>
      <trkpt lat="59.5464412" lon="17.4795697">
        <ele>29.4575</ele>
        <time>2011-02-04T18:28:43Z</time>
      </trkpt>
      <trkpt lat="59.5464044" lon="17.4799966">
        <ele>28.4962</ele>
        <time>2011-02-04T18:28:48Z</time>
      </trkpt>
      <trkpt lat="59.5463692" lon="17.4803545">
        <ele>26.0929</ele>
        <time>2011-02-04T18:28:53Z</time>
      </trkpt>
      <trkpt lat="59.5464872" lon="17.480675">
        <ele>26.0929</ele>
        <time>2011-02-04T18:28:57Z</time>
      </trkpt>
      <trkpt lat="59.5465691" lon="17.4807549">
        <ele>25.1317</ele>
        <time>2011-02-04T18:28:59Z</time>
      </trkpt>
      <trkpt lat="59.546692" lon="17.4808216">
        <ele>25.6123</ele>
        <time>2011-02-04T18:29:02Z</time>
      </trkpt>
      <trkpt lat="59.5468435" lon="17.4809098">
        <ele>25.6123</ele>
        <time>2011-02-04T18:29:06Z</time>
      </trkpt>
      <trkpt lat="59.5469795" lon="17.480947">
        <ele>27.0543</ele>
        <time>2011-02-04T18:29:11Z</time>
      </trkpt>
      <trkpt lat="59.5471224" lon="17.4809218">
        <ele>29.9381</ele>
        <time>2011-02-04T18:29:16Z</time>
      </trkpt>
      <trkpt lat="59.5472482" lon="17.4807661">
        <ele>32.3416</ele>
        <time>2011-02-04T18:29:20Z</time>
      </trkpt>
      <trkpt lat="59.5473934" lon="17.4804607">
        <ele>34.7449</ele>
        <time>2011-02-04T18:29:24Z</time>
      </trkpt>
      <trkpt lat="59.547427" lon="17.4803893">
        <ele>35.2255</ele>
        <time>2011-02-04T18:29:25Z</time>
      </trkpt>
      <trkpt lat="59.5474963" lon="17.4802375">
        <ele>35.7061</ele>
        <time>2011-02-04T18:29:27Z</time>
      </trkpt>
      <trkpt lat="59.5476905" lon="17.4798038">
        <ele>36.6675</ele>
        <time>2011-02-04T18:29:32Z</time>
      </trkpt>
      <trkpt lat="59.5477921" lon="17.4795136">
        <ele>34.2642</ele>
        <time>2011-02-04T18:29:35Z</time>
      </trkpt>
      <trkpt lat="59.5479777" lon="17.4790112">
        <ele>35.7061</ele>
        <time>2011-02-04T18:29:40Z</time>
      </trkpt>
      <trkpt lat="59.5481336" lon="17.4790584">
        <ele>35.2255</ele>
        <time>2011-02-04T18:29:43Z</time>
      </trkpt>
      <trkpt lat="59.5482225" lon="17.4793053">
        <ele>32.8223</ele>
        <time>2011-02-04T18:29:46Z</time>
      </trkpt>
      <trkpt lat="59.5482335" lon="17.4800111">
        <ele>30.8995</ele>
        <time>2011-02-04T18:29:51Z</time>
      </trkpt>
      <trkpt lat="59.5481915" lon="17.4802141">
        <ele>30.8995</ele>
        <time>2011-02-04T18:29:53Z</time>
      </trkpt>
      <trkpt lat="59.5481437" lon="17.4803742">
        <ele>29.9381</ele>
        <time>2011-02-04T18:29:55Z</time>
      </trkpt>
      <trkpt lat="59.54806" lon="17.4805512">
        <ele>28.9769</ele>
        <time>2011-02-04T18:29:58Z</time>
      </trkpt>
      <trkpt lat="59.5480201" lon="17.4806823">
        <ele>28.4962</ele>
        <time>2011-02-04T18:30:00Z</time>
      </trkpt>
      <trkpt lat="59.5480117" lon="17.4809399">
        <ele>27.0543</ele>
        <time>2011-02-04T18:30:04Z</time>
      </trkpt>
      <trkpt lat="59.5479822" lon="17.4813251">
        <ele>25.6123</ele>
        <time>2011-02-04T18:30:10Z</time>
      </trkpt>
      <trkpt lat="59.5479759" lon="17.4817595">
        <ele>26.0929</ele>
        <time>2011-02-04T18:30:15Z</time>
      </trkpt>
      <trkpt lat="59.5479724" lon="17.481857">
        <ele>26.5736</ele>
        <time>2011-02-04T18:30:16Z</time>
      </trkpt>
      <trkpt lat="59.5479472" lon="17.482097">
        <ele>26.5736</ele>
        <time>2011-02-04T18:30:19Z</time>
      </trkpt>
      <trkpt lat="59.547871" lon="17.4823666">
        <ele>26.0929</ele>
        <time>2011-02-04T18:30:23Z</time>
      </trkpt>
      <trkpt lat="59.5477223" lon="17.4827129">
        <ele>26.5736</ele>
        <time>2011-02-04T18:30:28Z</time>
      </trkpt>
      <trkpt lat="59.547588" lon="17.4829125">
        <ele>28.4962</ele>
        <time>2011-02-04T18:30:34Z</time>
      </trkpt>
      <trkpt lat="59.5474532" lon="17.4831117">
        <ele>27.5349</ele>
        <time>2011-02-04T18:30:38Z</time>
      </trkpt>
      <trkpt lat="59.5473348" lon="17.4833412">
        <ele>24.1703</ele>
        <time>2011-02-04T18:30:42Z</time>
      </trkpt>
      <trkpt lat="59.5472628" lon="17.4835154">
        <ele>23.6896</ele>
        <time>2011-02-04T18:30:45Z</time>
      </trkpt>
      <trkpt lat="59.5472249" lon="17.4837101">
        <ele>21.767</ele>
        <time>2011-02-04T18:30:48Z</time>
      </trkpt>
      <trkpt lat="59.5472767" lon="17.4841205">
        <ele>20.8057</ele>
        <time>2011-02-04T18:30:53Z</time>
      </trkpt>
      <trkpt lat="59.5473467" lon="17.4843541">
        <ele>21.767</ele>
        <time>2011-02-04T18:30:57Z</time>
      </trkpt>
      <trkpt lat="59.5474021" lon="17.4846843">
        <ele>21.2864</ele>
        <time>2011-02-04T18:31:01Z</time>
      </trkpt>
      <trkpt lat="59.5474616" lon="17.4850234">
        <ele>21.2864</ele>
        <time>2011-02-04T18:31:06Z</time>
      </trkpt>
      <trkpt lat="59.5475732" lon="17.4852208">
        <ele>24.1703</ele>
        <time>2011-02-04T18:31:11Z</time>
      </trkpt>
      <trkpt lat="59.5476947" lon="17.485301">
        <ele>26.5736</ele>
        <time>2011-02-04T18:31:14Z</time>
      </trkpt>
      <trkpt lat="59.5479656" lon="17.4852928">
        <ele>25.6123</ele>
        <time>2011-02-04T18:31:19Z</time>
      </trkpt>
      <trkpt lat="59.5481698" lon="17.4853756">
        <ele>27.0543</ele>
        <time>2011-02-04T18:31:24Z</time>
      </trkpt>
      <trkpt lat="59.5483461" lon="17.4855541">
        <ele>27.5349</ele>
        <time>2011-02-04T18:31:28Z</time>
      </trkpt>
      <trkpt lat="59.5484191" lon="17.4856479">
        <ele>27.0543</ele>
        <time>2011-02-04T18:31:30Z</time>
      </trkpt>
      <trkpt lat="59.548492" lon="17.4857834">
        <ele>27.0543</ele>
        <time>2011-02-04T18:31:32Z</time>
      </trkpt>
      <trkpt lat="59.548619" lon="17.4861857">
        <ele>27.5349</ele>
        <time>2011-02-04T18:31:36Z</time>
      </trkpt>
      <trkpt lat="59.5487122" lon="17.4868358">
        <ele>25.1317</ele>
        <time>2011-02-04T18:31:42Z</time>
      </trkpt>
      <trkpt lat="59.5487432" lon="17.4869268">
        <ele>26.0929</ele>
        <time>2011-02-04T18:31:43Z</time>
      </trkpt>
      <trkpt lat="59.5489068" lon="17.4871827">
        <ele>27.5349</ele>
        <time>2011-02-04T18:31:47Z</time>
      </trkpt>
      <trkpt lat="59.5490817" lon="17.4875744">
        <ele>27.5349</ele>
        <time>2011-02-04T18:31:51Z</time>
      </trkpt>
      <trkpt lat="59.5491606" lon="17.4881587">
        <ele>24.651</ele>
        <time>2011-02-04T18:31:56Z</time>
      </trkpt>
      <trkpt lat="59.5491541" lon="17.4885511">
        <ele>24.1703</ele>
        <time>2011-02-04T18:32:00Z</time>
      </trkpt>
      <trkpt lat="59.5491685" lon="17.4889385">
        <ele>25.6123</ele>
        <time>2011-02-04T18:32:05Z</time>
      </trkpt>
      <trkpt lat="59.549186" lon="17.4890005">
        <ele>26.0929</ele>
        <time>2011-02-04T18:32:06Z</time>
      </trkpt>
      <trkpt lat="59.549267" lon="17.4892019">
        <ele>26.5736</ele>
        <time>2011-02-04T18:32:09Z</time>
      </trkpt>
      <trkpt lat="59.5495595" lon="17.4895891">
        <ele>25.1317</ele>
        <time>2011-02-04T18:32:15Z</time>
      </trkpt>
      <trkpt lat="59.5495929" lon="17.4896697">
        <ele>23.209</ele>
        <time>2011-02-04T18:32:16Z</time>
      </trkpt>
      <trkpt lat="59.5497" lon="17.4900479">
        <ele>20.325</ele>
        <time>2011-02-04T18:32:20Z</time>
      </trkpt>
      <trkpt lat="59.5497276" lon="17.4902348">
        <ele>19.3638</ele>
        <time>2011-02-04T18:32:22Z</time>
      </trkpt>
      <trkpt lat="59.5497143" lon="17.4905686">
        <ele>17.9218</ele>
        <time>2011-02-04T18:32:26Z</time>
      </trkpt>
      <trkpt lat="59.549642" lon="17.4908395">
        <ele>16.9604</ele>
        <time>2011-02-04T18:32:29Z</time>
      </trkpt>
      <trkpt lat="59.5495432" lon="17.4910912">
        <ele>17.4412</ele>
        <time>2011-02-04T18:32:33Z</time>
      </trkpt>
      <trkpt lat="59.5493595" lon="17.4915348">
        <ele>16.4797</ele>
        <time>2011-02-04T18:32:39Z</time>
      </trkpt>
      <trkpt lat="59.5492179" lon="17.4918853">
        <ele>15.0377</ele>
        <time>2011-02-04T18:32:44Z</time>
      </trkpt>
      <trkpt lat="59.5491008" lon="17.4921641">
        <ele>14.557</ele>
        <time>2011-02-04T18:32:48Z</time>
      </trkpt>
      <trkpt lat="59.5489273" lon="17.4924899">
        <ele>13.5958</ele>
        <time>2011-02-04T18:32:53Z</time>
      </trkpt>
      <trkpt lat="59.5487946" lon="17.4926986">
        <ele>14.0764</ele>
        <time>2011-02-04T18:32:57Z</time>
      </trkpt>
      <trkpt lat="59.548627" lon="17.4929017">
        <ele>14.0764</ele>
        <time>2011-02-04T18:33:01Z</time>
      </trkpt>
      <trkpt lat="59.5485055" lon="17.493021">
        <ele>15.999</ele>
        <time>2011-02-04T18:33:04Z</time>
      </trkpt>
      <trkpt lat="59.5482569" lon="17.4932079">
        <ele>15.5184</ele>
        <time>2011-02-04T18:33:10Z</time>
      </trkpt>
      <trkpt lat="59.5481895" lon="17.4932761">
        <ele>15.5184</ele>
        <time>2011-02-04T18:33:12Z</time>
      </trkpt>
      <trkpt lat="59.5481165" lon="17.493361">
        <ele>15.5184</ele>
        <time>2011-02-04T18:33:14Z</time>
      </trkpt>
      <trkpt lat="59.5479703" lon="17.4935001">
        <ele>16.4797</ele>
        <time>2011-02-04T18:33:18Z</time>
      </trkpt>
      <trkpt lat="59.5478958" lon="17.4935651">
        <ele>16.4797</ele>
        <time>2011-02-04T18:33:20Z</time>
      </trkpt>
      <trkpt lat="59.5477253" lon="17.4936523">
        <ele>15.999</ele>
        <time>2011-02-04T18:33:25Z</time>
      </trkpt>
      <trkpt lat="59.5475705" lon="17.4936606">
        <ele>15.999</ele>
        <time>2011-02-04T18:33:29Z</time>
      </trkpt>
      <trkpt lat="59.5474028" lon="17.4936786">
        <ele>17.4412</ele>
        <time>2011-02-04T18:33:33Z</time>
      </trkpt>
      <trkpt lat="59.5472147" lon="17.4936563">
        <ele>19.8444</ele>
        <time>2011-02-04T18:33:38Z</time>
      </trkpt>
      <trkpt lat="59.5470464" lon="17.4935794">
        <ele>21.767</ele>
        <time>2011-02-04T18:33:43Z</time>
      </trkpt>
      <trkpt lat="59.5469204" lon="17.4933896">
        <ele>25.6123</ele>
        <time>2011-02-04T18:33:49Z</time>
      </trkpt>
      <trkpt lat="59.5468036" lon="17.4932443">
        <ele>30.4188</ele>
        <time>2011-02-04T18:33:53Z</time>
      </trkpt>
      <trkpt lat="59.5466448" lon="17.4930604">
        <ele>33.7834</ele>
        <time>2011-02-04T18:33:58Z</time>
      </trkpt>
      <trkpt lat="59.546521" lon="17.492852">
        <ele>34.7449</ele>
        <time>2011-02-04T18:34:03Z</time>
      </trkpt>
      <trkpt lat="59.5464537" lon="17.4925578">
        <ele>36.6675</ele>
        <time>2011-02-04T18:34:07Z</time>
      </trkpt>
      <trkpt lat="59.5463761" lon="17.4922092">
        <ele>39.0707</ele>
        <time>2011-02-04T18:34:12Z</time>
      </trkpt>
      <trkpt lat="59.5462944" lon="17.4918992">
        <ele>38.5901</ele>
        <time>2011-02-04T18:34:17Z</time>
      </trkpt>
      <trkpt lat="59.5461828" lon="17.4916532">
        <ele>36.6675</ele>
        <time>2011-02-04T18:34:21Z</time>
      </trkpt>
      <trkpt lat="59.5461153" lon="17.4913772">
        <ele>36.1868</ele>
        <time>2011-02-04T18:34:25Z</time>
      </trkpt>
      <trkpt lat="59.5460973" lon="17.4913062">
        <ele>36.1868</ele>
        <time>2011-02-04T18:34:26Z</time>
      </trkpt>
      <trkpt lat="59.5460132" lon="17.4910531">
        <ele>38.1094</ele>
        <time>2011-02-04T18:34:29Z</time>
      </trkpt>
      <trkpt lat="59.5457916" lon="17.4908331">
        <ele>40.5128</ele>
        <time>2011-02-04T18:34:34Z</time>
      </trkpt>
      <trkpt lat="59.5455698" lon="17.4906614">
        <ele>39.0707</ele>
        <time>2011-02-04T18:34:39Z</time>
      </trkpt>
      <trkpt lat="59.5453866" lon="17.4904459">
        <ele>37.6287</ele>
        <time>2011-02-04T18:34:44Z</time>
      </trkpt>
      <trkpt lat="59.5452855" lon="17.4899624">
        <ele>38.5901</ele>
        <time>2011-02-04T18:34:50Z</time>
      </trkpt>
      <trkpt lat="59.5452918" lon="17.4898662">
        <ele>38.1094</ele>
        <time>2011-02-04T18:34:51Z</time>
      </trkpt>
      <trkpt lat="59.545315" lon="17.4896678">
        <ele>38.1094</ele>
        <time>2011-02-04T18:34:53Z</time>
      </trkpt>
      <trkpt lat="59.5453592" lon="17.4894905">
        <ele>38.5901</ele>
        <time>2011-02-04T18:34:55Z</time>
      </trkpt>
      <trkpt lat="59.5454803" lon="17.489171">
        <ele>38.1094</ele>
        <time>2011-02-04T18:35:00Z</time>
      </trkpt>
      <trkpt lat="59.5455757" lon="17.4890564">
        <ele>38.1094</ele>
        <time>2011-02-04T18:35:04Z</time>
      </trkpt>
      <trkpt lat="59.5456278" lon="17.4890607">
        <ele>38.1094</ele>
        <time>2011-02-04T18:35:06Z</time>
      </trkpt>
      <trkpt lat="59.5457575" lon="17.4891975">
        <ele>35.7061</ele>
        <time>2011-02-04T18:35:11Z</time>
      </trkpt>
      <trkpt lat="59.545974" lon="17.4893269">
        <ele>33.3029</ele>
        <time>2011-02-04T18:35:16Z</time>
      </trkpt>
      <trkpt lat="59.5460631" lon="17.4892798">
        <ele>33.3029</ele>
        <time>2011-02-04T18:35:18Z</time>
      </trkpt>
      <trkpt lat="59.5461784" lon="17.4891435">
        <ele>32.8223</ele>
        <time>2011-02-04T18:35:21Z</time>
      </trkpt>
      <trkpt lat="59.5462884" lon="17.4889965">
        <ele>34.2642</ele>
        <time>2011-02-04T18:35:24Z</time>
      </trkpt>
      <trkpt lat="59.5464884" lon="17.4888254">
        <ele>35.2255</ele>
        <time>2011-02-04T18:35:29Z</time>
      </trkpt>
      <trkpt lat="59.5466697" lon="17.4888839">
        <ele>31.8607</ele>
        <time>2011-02-04T18:35:33Z</time>
      </trkpt>
      <trkpt lat="59.546708" lon="17.4889189">
        <ele>31.3801</ele>
        <time>2011-02-04T18:35:34Z</time>
      </trkpt>
      <trkpt lat="59.5469241" lon="17.4889124">
        <ele>35.7061</ele>
        <time>2011-02-04T18:35:41Z</time>
      </trkpt>
      <trkpt lat="59.5470608" lon="17.4889234">
        <ele>37.1481</ele>
        <time>2011-02-04T18:35:45Z</time>
      </trkpt>
      <trkpt lat="59.5472851" lon="17.4890212">
        <ele>36.6675</ele>
        <time>2011-02-04T18:35:50Z</time>
      </trkpt>
      <trkpt lat="59.5473793" lon="17.489085">
        <ele>35.2255</ele>
        <time>2011-02-04T18:35:52Z</time>
      </trkpt>
      <trkpt lat="59.5475983" lon="17.4891056">
        <ele>36.1868</ele>
        <time>2011-02-04T18:35:57Z</time>
      </trkpt>
      <trkpt lat="59.547671" lon="17.4890313">
        <ele>37.6287</ele>
        <time>2011-02-04T18:35:59Z</time>
      </trkpt>
      <trkpt lat="59.54783" lon="17.4886824">
        <ele>38.5901</ele>
        <time>2011-02-04T18:36:04Z</time>
      </trkpt>
      <trkpt lat="59.5479632" lon="17.4883959">
        <ele>40.0321</ele>
        <time>2011-02-04T18:36:08Z</time>
      </trkpt>
      <trkpt lat="59.5481635" lon="17.4881277">
        <ele>41.474</ele>
        <time>2011-02-04T18:36:13Z</time>
      </trkpt>
      <trkpt lat="59.5482365" lon="17.4880642">
        <ele>40.5128</ele>
        <time>2011-02-04T18:36:15Z</time>
      </trkpt>
      <trkpt lat="59.5484343" lon="17.4877849">
        <ele>40.0321</ele>
        <time>2011-02-04T18:36:21Z</time>
      </trkpt>
      <trkpt lat="59.5486336" lon="17.487476">
        <ele>39.0707</ele>
        <time>2011-02-04T18:36:26Z</time>
      </trkpt>
      <trkpt lat="59.5487215" lon="17.4869762">
        <ele>40.0321</ele>
        <time>2011-02-04T18:36:30Z</time>
      </trkpt>
      <trkpt lat="59.5486732" lon="17.4866054">
        <ele>38.5901</ele>
        <time>2011-02-04T18:36:33Z</time>
      </trkpt>
      <trkpt lat="59.5485682" lon="17.4861786">
        <ele>36.6675</ele>
        <time>2011-02-04T18:36:37Z</time>
      </trkpt>
      <trkpt lat="59.5484309" lon="17.4858738">
        <ele>36.6675</ele>
        <time>2011-02-04T18:36:41Z</time>
      </trkpt>
      <trkpt lat="59.5483771" lon="17.4857189">
        <ele>38.5901</ele>
        <time>2011-02-04T18:36:43Z</time>
      </trkpt>
      <trkpt lat="59.5483367" lon="17.4856432">
        <ele>39.5513</ele>
        <time>2011-02-04T18:36:44Z</time>
      </trkpt>
      <trkpt lat="59.5482671" lon="17.4854925">
        <ele>40.0321</ele>
        <time>2011-02-04T18:36:46Z</time>
      </trkpt>
      <trkpt lat="59.5481999" lon="17.4854262">
        <ele>39.5513</ele>
        <time>2011-02-04T18:36:48Z</time>
      </trkpt>
      <trkpt lat="59.5481108" lon="17.4853627">
        <ele>40.0321</ele>
        <time>2011-02-04T18:36:51Z</time>
      </trkpt>
      <trkpt lat="59.5479057" lon="17.4853757">
        <ele>39.5513</ele>
        <time>2011-02-04T18:36:56Z</time>
      </trkpt>
      <trkpt lat="59.5477648" lon="17.4853906">
        <ele>39.5513</ele>
        <time>2011-02-04T18:36:59Z</time>
      </trkpt>
      <trkpt lat="59.5475858" lon="17.4853595">
        <ele>39.5513</ele>
        <time>2011-02-04T18:37:03Z</time>
      </trkpt>
      <trkpt lat="59.5474672" lon="17.485347">
        <ele>39.5513</ele>
        <time>2011-02-04T18:37:06Z</time>
      </trkpt>
      <trkpt lat="59.5473633" lon="17.4854263">
        <ele>39.5513</ele>
        <time>2011-02-04T18:37:10Z</time>
      </trkpt>
      <trkpt lat="59.5472695" lon="17.4855336">
        <ele>38.5901</ele>
        <time>2011-02-04T18:37:14Z</time>
      </trkpt>
      <trkpt lat="59.5471892" lon="17.485693">
        <ele>37.1481</ele>
        <time>2011-02-04T18:37:18Z</time>
      </trkpt>
      <trkpt lat="59.5470178" lon="17.4859397">
        <ele>35.7061</ele>
        <time>2011-02-04T18:37:24Z</time>
      </trkpt>
      <trkpt lat="59.5469106" lon="17.486081">
        <ele>35.2255</ele>
        <time>2011-02-04T18:37:28Z</time>
      </trkpt>
      <trkpt lat="59.5467977" lon="17.4862286">
        <ele>34.2642</ele>
        <time>2011-02-04T18:37:32Z</time>
      </trkpt>
      <trkpt lat="59.5466479" lon="17.4864552">
        <ele>33.3029</ele>
        <time>2011-02-04T18:37:37Z</time>
      </trkpt>
      <trkpt lat="59.5465146" lon="17.4865976">
        <ele>32.3416</ele>
        <time>2011-02-04T18:37:40Z</time>
      </trkpt>
      <trkpt lat="59.5463716" lon="17.4866545">
        <ele>33.3029</ele>
        <time>2011-02-04T18:37:43Z</time>
      </trkpt>
      <trkpt lat="59.5460495" lon="17.486639">
        <ele>35.2255</ele>
        <time>2011-02-04T18:37:48Z</time>
      </trkpt>
      <trkpt lat="59.5459669" lon="17.486622">
        <ele>34.2642</ele>
        <time>2011-02-04T18:37:49Z</time>
      </trkpt>
      <trkpt lat="59.5456296" lon="17.4863133">
        <ele>33.7834</ele>
        <time>2011-02-04T18:37:54Z</time>
      </trkpt>
      <trkpt lat="59.5455275" lon="17.4861318">
        <ele>33.7834</ele>
        <time>2011-02-04T18:37:56Z</time>
      </trkpt>
      <trkpt lat="59.5454063" lon="17.4855895">
        <ele>32.8223</ele>
        <time>2011-02-04T18:38:01Z</time>
      </trkpt>
      <trkpt lat="59.5453227" lon="17.4848711">
        <ele>32.3416</ele>
        <time>2011-02-04T18:38:06Z</time>
      </trkpt>
      <trkpt lat="59.5454066" lon="17.4843017">
        <ele>32.8223</ele>
        <time>2011-02-04T18:38:10Z</time>
      </trkpt>
      <trkpt lat="59.5455202" lon="17.4841841">
        <ele>30.8995</ele>
        <time>2011-02-04T18:38:13Z</time>
      </trkpt>
      <trkpt lat="59.5456496" lon="17.4840489">
        <ele>32.3416</ele>
        <time>2011-02-04T18:38:16Z</time>
      </trkpt>
      <trkpt lat="59.5458989" lon="17.4838286">
        <ele>35.2255</ele>
        <time>2011-02-04T18:38:22Z</time>
      </trkpt>
      <trkpt lat="59.5459951" lon="17.4839112">
        <ele>37.6287</ele>
        <time>2011-02-04T18:38:25Z</time>
      </trkpt>
      <trkpt lat="59.5460704" lon="17.4842038">
        <ele>35.2255</ele>
        <time>2011-02-04T18:38:29Z</time>
      </trkpt>
      <trkpt lat="59.5461246" lon="17.4845768">
        <ele>34.7449</ele>
        <time>2011-02-04T18:38:34Z</time>
      </trkpt>
      <trkpt lat="59.546134" lon="17.4846337">
        <ele>34.2642</ele>
        <time>2011-02-04T18:38:35Z</time>
      </trkpt>
      <trkpt lat="59.5461815" lon="17.4849635">
        <ele>30.8995</ele>
        <time>2011-02-04T18:38:41Z</time>
      </trkpt>
      <trkpt lat="59.5462454" lon="17.4851611">
        <ele>29.9381</ele>
        <time>2011-02-04T18:38:45Z</time>
      </trkpt>
      <trkpt lat="59.5462952" lon="17.4853824">
        <ele>29.9381</ele>
        <time>2011-02-04T18:38:50Z</time>
      </trkpt>
      <trkpt lat="59.5463257" lon="17.4855763">
        <ele>30.4188</ele>
        <time>2011-02-04T18:38:54Z</time>
      </trkpt>
      <trkpt lat="59.5463682" lon="17.4857782">
        <ele>31.8607</ele>
        <time>2011-02-04T18:38:58Z</time>
      </trkpt>
      <trkpt lat="59.5464759" lon="17.486023">
        <ele>34.7449</ele>
        <time>2011-02-04T18:39:03Z</time>
      </trkpt>
      <trkpt lat="59.5466118" lon="17.4861247">
        <ele>34.7449</ele>
        <time>2011-02-04T18:39:06Z</time>
      </trkpt>
      <trkpt lat="59.5467286" lon="17.4861143">
        <ele>36.1868</ele>
        <time>2011-02-04T18:39:08Z</time>
      </trkpt>
      <trkpt lat="59.5469872" lon="17.4859379">
        <ele>33.7834</ele>
        <time>2011-02-04T18:39:12Z</time>
      </trkpt>
      <trkpt lat="59.5473451" lon="17.4854091">
        <ele>33.7834</ele>
        <time>2011-02-04T18:39:19Z</time>
      </trkpt>
      <trkpt lat="59.5473986" lon="17.4853217">
        <ele>33.7834</ele>
        <time>2011-02-04T18:39:20Z</time>
      </trkpt>
      <trkpt lat="59.5475033" lon="17.4849027">
        <ele>36.1868</ele>
        <time>2011-02-04T18:39:23Z</time>
      </trkpt>
      <trkpt lat="59.5475304" lon="17.4844973">
        <ele>35.7061</ele>
        <time>2011-02-04T18:39:26Z</time>
      </trkpt>
      <trkpt lat="59.5473638" lon="17.4841439">
        <ele>33.3029</ele>
        <time>2011-02-04T18:39:30Z</time>
      </trkpt>
      <trkpt lat="59.5472474" lon="17.4840858">
        <ele>34.2642</ele>
        <time>2011-02-04T18:39:32Z</time>
      </trkpt>
      <trkpt lat="59.5471535" lon="17.4840593">
        <ele>33.7834</ele>
        <time>2011-02-04T18:39:34Z</time>
      </trkpt>
      <trkpt lat="59.5470323" lon="17.4840774">
        <ele>32.3416</ele>
        <time>2011-02-04T18:39:38Z</time>
      </trkpt>
      <trkpt lat="59.5468879" lon="17.4841791">
        <ele>33.3029</ele>
        <time>2011-02-04T18:39:44Z</time>
      </trkpt>
      <trkpt lat="59.5467147" lon="17.4842317">
        <ele>34.2642</ele>
        <time>2011-02-04T18:39:49Z</time>
      </trkpt>
      <trkpt lat="59.5465437" lon="17.4841696">
        <ele>35.7061</ele>
        <time>2011-02-04T18:39:53Z</time>
      </trkpt>
      <trkpt lat="59.5464919" lon="17.4841329">
        <ele>36.1868</ele>
        <time>2011-02-04T18:39:54Z</time>
      </trkpt>
      <trkpt lat="59.5462304" lon="17.4838852">
        <ele>36.1868</ele>
        <time>2011-02-04T18:39:58Z</time>
      </trkpt>
      <trkpt lat="59.5461673" lon="17.4837754">
        <ele>36.6675</ele>
        <time>2011-02-04T18:39:59Z</time>
      </trkpt>
      <trkpt lat="59.5460683" lon="17.4833113">
        <ele>37.1481</ele>
        <time>2011-02-04T18:40:02Z</time>
      </trkpt>
      <trkpt lat="59.5461043" lon="17.4829327">
        <ele>36.6675</ele>
        <time>2011-02-04T18:40:05Z</time>
      </trkpt>
      <trkpt lat="59.5461946" lon="17.482341">
        <ele>36.1868</ele>
        <time>2011-02-04T18:40:11Z</time>
      </trkpt>
      <trkpt lat="59.5463485" lon="17.4821713">
        <ele>36.6675</ele>
        <time>2011-02-04T18:40:15Z</time>
      </trkpt>
      <trkpt lat="59.5464326" lon="17.4822007">
        <ele>36.1868</ele>
        <time>2011-02-04T18:40:17Z</time>
      </trkpt>
      <trkpt lat="59.5465553" lon="17.4822243">
        <ele>35.2255</ele>
        <time>2011-02-04T18:40:20Z</time>
      </trkpt>
      <trkpt lat="59.5467477" lon="17.4821743">
        <ele>36.6675</ele>
        <time>2011-02-04T18:40:25Z</time>
      </trkpt>
      <trkpt lat="59.5468718" lon="17.4821333">
        <ele>35.7061</ele>
        <time>2011-02-04T18:40:28Z</time>
      </trkpt>
      <trkpt lat="59.547044" lon="17.4819394">
        <ele>37.6287</ele>
        <time>2011-02-04T18:40:34Z</time>
      </trkpt>
      <trkpt lat="59.5470867" lon="17.481864">
        <ele>37.6287</ele>
        <time>2011-02-04T18:40:36Z</time>
      </trkpt>
      <trkpt lat="59.5471017" lon="17.4816219">
        <ele>38.1094</ele>
        <time>2011-02-04T18:40:41Z</time>
      </trkpt>
      <trkpt lat="59.5470668" lon="17.4812657">
        <ele>39.0707</ele>
        <time>2011-02-04T18:40:46Z</time>
      </trkpt>
      <trkpt lat="59.5468824" lon="17.4810498">
        <ele>38.5901</ele>
        <time>2011-02-04T18:40:50Z</time>
      </trkpt>
      <trkpt lat="59.546808" lon="17.481019">
        <ele>38.1094</ele>
        <time>2011-02-04T18:40:51Z</time>
      </trkpt>
      <trkpt lat="59.5466534" lon="17.4809677">
        <ele>38.1094</ele>
        <time>2011-02-04T18:40:53Z</time>
      </trkpt>
      <trkpt lat="59.54645" lon="17.4807217">
        <ele>39.0707</ele>
        <time>2011-02-04T18:40:57Z</time>
      </trkpt>
      <trkpt lat="59.5463978" lon="17.4805472">
        <ele>40.0321</ele>
        <time>2011-02-04T18:40:59Z</time>
      </trkpt>
      <trkpt lat="59.5463775" lon="17.4801222">
        <ele>34.7449</ele>
        <time>2011-02-04T18:41:04Z</time>
      </trkpt>
      <trkpt lat="59.5464038" lon="17.4798492">
        <ele>33.7834</ele>
        <time>2011-02-04T18:41:08Z</time>
      </trkpt>
      <trkpt lat="59.5464077" lon="17.4797693">
        <ele>33.3029</ele>
        <time>2011-02-04T18:41:09Z</time>
      </trkpt>
      <trkpt lat="59.5464243" lon="17.4793429">
        <ele>32.8223</ele>
        <time>2011-02-04T18:41:15Z</time>
      </trkpt>
      <trkpt lat="59.5464284" lon="17.4790138">
        <ele>32.3416</ele>
        <time>2011-02-04T18:41:20Z</time>
      </trkpt>
      <trkpt lat="59.546434" lon="17.478613">
        <ele>31.3801</ele>
        <time>2011-02-04T18:41:25Z</time>
      </trkpt>
      <trkpt lat="59.5464588" lon="17.4783103">
        <ele>31.8607</ele>
        <time>2011-02-04T18:41:29Z</time>
      </trkpt>
      <trkpt lat="59.5465148" lon="17.4780955">
        <ele>33.3029</ele>
        <time>2011-02-04T18:41:33Z</time>
      </trkpt>
      <trkpt lat="59.5466406" lon="17.4778402">
        <ele>34.7449</ele>
        <time>2011-02-04T18:41:37Z</time>
      </trkpt>
      <trkpt lat="59.5467122" lon="17.4776508">
        <ele>35.7061</ele>
        <time>2011-02-04T18:41:39Z</time>
      </trkpt>
      <trkpt lat="59.5467966" lon="17.4772626">
        <ele>37.6287</ele>
        <time>2011-02-04T18:41:42Z</time>
      </trkpt>
      <trkpt lat="59.5468132" lon="17.4769113">
        <ele>37.6287</ele>
        <time>2011-02-04T18:41:46Z</time>
      </trkpt>
      <trkpt lat="59.5467718" lon="17.4766778">
        <ele>38.1094</ele>
        <time>2011-02-04T18:41:50Z</time>
      </trkpt>
      <trkpt lat="59.5466783" lon="17.47654">
        <ele>38.5901</ele>
        <time>2011-02-04T18:41:54Z</time>
      </trkpt>
      <trkpt lat="59.5465551" lon="17.4765306">
        <ele>38.5901</ele>
        <time>2011-02-04T18:41:59Z</time>
      </trkpt>
      <trkpt lat="59.5464629" lon="17.476815">
        <ele>35.2255</ele>
        <time>2011-02-04T18:42:05Z</time>
      </trkpt>
      <trkpt lat="59.5462666" lon="17.4770357">
        <ele>31.3801</ele>
        <time>2011-02-04T18:42:10Z</time>
      </trkpt>
      <trkpt lat="59.5461273" lon="17.4770999">
        <ele>32.8223</ele>
        <time>2011-02-04T18:42:12Z</time>
      </trkpt>
      <trkpt lat="59.5459308" lon="17.4772703">
        <ele>31.3801</ele>
        <time>2011-02-04T18:42:15Z</time>
      </trkpt>
      <trkpt lat="59.5456935" lon="17.477284">
        <ele>29.9381</ele>
        <time>2011-02-04T18:42:19Z</time>
      </trkpt>
      <trkpt lat="59.5455736" lon="17.4769646">
        <ele>29.9381</ele>
        <time>2011-02-04T18:42:22Z</time>
      </trkpt>
      <trkpt lat="59.545515" lon="17.4765822">
        <ele>28.9769</ele>
        <time>2011-02-04T18:42:25Z</time>
      </trkpt>
      <trkpt lat="59.5455035" lon="17.4763454">
        <ele>28.0155</ele>
        <time>2011-02-04T18:42:27Z</time>
      </trkpt>
      <trkpt lat="59.5454024" lon="17.4758315">
        <ele>29.4575</ele>
        <time>2011-02-04T18:42:32Z</time>
      </trkpt>
      <trkpt lat="59.5453213" lon="17.4755379">
        <ele>28.9769</ele>
        <time>2011-02-04T18:42:36Z</time>
      </trkpt>
      <trkpt lat="59.5453463" lon="17.4753698">
        <ele>28.9769</ele>
        <time>2011-02-04T18:42:38Z</time>
      </trkpt>
      <trkpt lat="59.5455118" lon="17.4749588">
        <ele>28.9769</ele>
        <time>2011-02-04T18:42:43Z</time>
      </trkpt>
      <trkpt lat="59.5456084" lon="17.4747912">
        <ele>28.4962</ele>
        <time>2011-02-04T18:42:45Z</time>
      </trkpt>
      <trkpt lat="59.5458427" lon="17.4744792">
        <ele>28.4962</ele>
        <time>2011-02-04T18:42:50Z</time>
      </trkpt>
      <trkpt lat="59.5459235" lon="17.474373">
        <ele>30.4188</ele>
        <time>2011-02-04T18:42:53Z</time>
      </trkpt>
      <trkpt lat="59.5460408" lon="17.4741902">
        <ele>30.8995</ele>
        <time>2011-02-04T18:42:57Z</time>
      </trkpt>
      <trkpt lat="59.5460734" lon="17.4738349">
        <ele>29.4575</ele>
        <time>2011-02-04T18:43:03Z</time>
      </trkpt>
      <trkpt lat="59.5460456" lon="17.4735929">
        <ele>26.0929</ele>
        <time>2011-02-04T18:43:05Z</time>
      </trkpt>
      <trkpt lat="59.5461409" lon="17.4730313">
        <ele>25.6123</ele>
        <time>2011-02-04T18:43:09Z</time>
      </trkpt>
      <trkpt lat="59.5462769" lon="17.4728085">
        <ele>25.6123</ele>
        <time>2011-02-04T18:43:12Z</time>
      </trkpt>
      <trkpt lat="59.5463086" lon="17.4727566">
        <ele>26.0929</ele>
        <time>2011-02-04T18:43:13Z</time>
      </trkpt>
      <trkpt lat="59.5464875" lon="17.4726004">
        <ele>28.0155</ele>
        <time>2011-02-04T18:43:18Z</time>
      </trkpt>
      <trkpt lat="59.546596" lon="17.4725994">
        <ele>28.4962</ele>
        <time>2011-02-04T18:43:21Z</time>
      </trkpt>
      <trkpt lat="59.5468261" lon="17.4726678">
        <ele>26.0929</ele>
        <time>2011-02-04T18:43:25Z</time>
      </trkpt>
      <trkpt lat="59.5468827" lon="17.4726931">
        <ele>26.0929</ele>
        <time>2011-02-04T18:43:26Z</time>
      </trkpt>
      <trkpt lat="59.5472099" lon="17.4727501">
        <ele>27.5349</ele>
        <time>2011-02-04T18:43:32Z</time>
      </trkpt>
      <trkpt lat="59.547312" lon="17.4727878">
        <ele>26.5736</ele>
        <time>2011-02-04T18:43:35Z</time>
      </trkpt>
      <trkpt lat="59.5473917" lon="17.4728185">
        <ele>27.0543</ele>
        <time>2011-02-04T18:43:38Z</time>
      </trkpt>
      <trkpt lat="59.5474612" lon="17.4728718">
        <ele>29.9381</ele>
        <time>2011-02-04T18:43:41Z</time>
      </trkpt>
      <trkpt lat="59.5475993" lon="17.4730588">
        <ele>33.7834</ele>
        <time>2011-02-04T18:43:47Z</time>
      </trkpt>
      <trkpt lat="59.5476829" lon="17.4732832">
        <ele>36.1868</ele>
        <time>2011-02-04T18:43:51Z</time>
      </trkpt>
      <trkpt lat="59.5477421" lon="17.4735007">
        <ele>38.5901</ele>
        <time>2011-02-04T18:43:55Z</time>
      </trkpt>
      <trkpt lat="59.5477464" lon="17.4736104">
        <ele>38.5901</ele>
        <time>2011-02-04T18:43:57Z</time>
      </trkpt>
      <trkpt lat="59.5478113" lon="17.4738607">
        <ele>39.0707</ele>
        <time>2011-02-04T18:44:02Z</time>
      </trkpt>
      <trkpt lat="59.5478186" lon="17.4739983">
        <ele>38.5901</ele>
        <time>2011-02-04T18:44:04Z</time>
      </trkpt>
      <trkpt lat="59.5477633" lon="17.4742678">
        <ele>37.1481</ele>
        <time>2011-02-04T18:44:09Z</time>
      </trkpt>
      <trkpt lat="59.5476657" lon="17.4744979">
        <ele>32.8223</ele>
        <time>2011-02-04T18:44:13Z</time>
      </trkpt>
      <trkpt lat="59.5475964" lon="17.474637">
        <ele>30.8995</ele>
        <time>2011-02-04T18:44:16Z</time>
      </trkpt>
      <trkpt lat="59.5475301" lon="17.4747332">
        <ele>29.9381</ele>
        <time>2011-02-04T18:44:19Z</time>
      </trkpt>
      <trkpt lat="59.5473965" lon="17.4748215">
        <ele>31.3801</ele>
        <time>2011-02-04T18:44:25Z</time>
      </trkpt>
      <trkpt lat="59.5472618" lon="17.4749269">
        <ele>31.8607</ele>
        <time>2011-02-04T18:44:30Z</time>
      </trkpt>
      <trkpt lat="59.5471676" lon="17.4750951">
        <ele>30.8995</ele>
        <time>2011-02-04T18:44:35Z</time>
      </trkpt>
      <trkpt lat="59.5470875" lon="17.475352">
        <ele>29.4575</ele>
        <time>2011-02-04T18:44:41Z</time>
      </trkpt>
      <trkpt lat="59.5470383" lon="17.4755746">
        <ele>29.4575</ele>
        <time>2011-02-04T18:44:45Z</time>
      </trkpt>
      <trkpt lat="59.5470262" lon="17.475683">
        <ele>28.9769</ele>
        <time>2011-02-04T18:44:47Z</time>
      </trkpt>
      <trkpt lat="59.5469335" lon="17.476011">
        <ele>29.9381</ele>
        <time>2011-02-04T18:44:53Z</time>
      </trkpt>
      <trkpt lat="59.5468443" lon="17.4761964">
        <ele>28.0155</ele>
        <time>2011-02-04T18:44:57Z</time>
      </trkpt>
      <trkpt lat="59.5467758" lon="17.4765066">
        <ele>28.0155</ele>
        <time>2011-02-04T18:45:01Z</time>
      </trkpt>
      <trkpt lat="59.546826" lon="17.4769378">
        <ele>28.4962</ele>
        <time>2011-02-04T18:45:05Z</time>
      </trkpt>
      <trkpt lat="59.5468799" lon="17.4773562">
        <ele>26.5736</ele>
        <time>2011-02-04T18:45:08Z</time>
      </trkpt>
      <trkpt lat="59.5467571" lon="17.4778669">
        <ele>28.9769</ele>
        <time>2011-02-04T18:45:13Z</time>
      </trkpt>
      <trkpt lat="59.5467007" lon="17.4779959">
        <ele>30.8995</ele>
        <time>2011-02-04T18:45:17Z</time>
      </trkpt>
      <trkpt lat="59.5465956" lon="17.4781509">
        <ele>32.8223</ele>
        <time>2011-02-04T18:45:22Z</time>
      </trkpt>
      <trkpt lat="59.5465169" lon="17.4783149">
        <ele>34.2642</ele>
        <time>2011-02-04T18:45:27Z</time>
      </trkpt>
      <trkpt lat="59.5465004" lon="17.4784421">
        <ele>33.3029</ele>
        <time>2011-02-04T18:45:29Z</time>
      </trkpt>
      <trkpt lat="59.5464739" lon="17.478945">
        <ele>29.4575</ele>
        <time>2011-02-04T18:45:34Z</time>
      </trkpt>
      <trkpt lat="59.5464765" lon="17.4790525">
        <ele>28.9769</ele>
        <time>2011-02-04T18:45:35Z</time>
      </trkpt>
      <trkpt lat="59.546436" lon="17.4796384">
        <ele>27.5349</ele>
        <time>2011-02-04T18:45:41Z</time>
      </trkpt>
      <trkpt lat="59.5464336" lon="17.4801473">
        <ele>26.5736</ele>
        <time>2011-02-04T18:45:46Z</time>
      </trkpt>
      <trkpt lat="59.5464438" lon="17.4804176">
        <ele>25.6123</ele>
        <time>2011-02-04T18:45:49Z</time>
      </trkpt>
      <trkpt lat="59.5465413" lon="17.4806902">
        <ele>25.1317</ele>
        <time>2011-02-04T18:45:53Z</time>
      </trkpt>
      <trkpt lat="59.5466073" lon="17.4807718">
        <ele>25.1317</ele>
        <time>2011-02-04T18:45:55Z</time>
      </trkpt>
      <trkpt lat="59.5468565" lon="17.4809664">
        <ele>25.1317</ele>
        <time>2011-02-04T18:46:01Z</time>
      </trkpt>
      <trkpt lat="59.5470075" lon="17.4809994">
        <ele>30.8995</ele>
        <time>2011-02-04T18:46:07Z</time>
      </trkpt>
      <trkpt lat="59.5471265" lon="17.4809707">
        <ele>32.8223</ele>
        <time>2011-02-04T18:46:11Z</time>
      </trkpt>
      <trkpt lat="59.5472408" lon="17.4808231">
        <ele>35.7061</ele>
        <time>2011-02-04T18:46:15Z</time>
      </trkpt>
      <trkpt lat="59.5473659" lon="17.480544">
        <ele>37.1481</ele>
        <time>2011-02-04T18:46:19Z</time>
      </trkpt>
      <trkpt lat="59.5475183" lon="17.4801357">
        <ele>40.5128</ele>
        <time>2011-02-04T18:46:24Z</time>
      </trkpt>
      <trkpt lat="59.5477865" lon="17.4795903">
        <ele>37.6287</ele>
        <time>2011-02-04T18:46:31Z</time>
      </trkpt>
      <trkpt lat="59.547884" lon="17.4792423">
        <ele>35.7061</ele>
        <time>2011-02-04T18:46:34Z</time>
      </trkpt>
      <trkpt lat="59.5479641" lon="17.4790777">
        <ele>36.1868</ele>
        <time>2011-02-04T18:46:36Z</time>
      </trkpt>
      <trkpt lat="59.5481779" lon="17.4791558">
        <ele>31.3801</ele>
        <time>2011-02-04T18:46:41Z</time>
      </trkpt>
      <trkpt lat="59.5482201" lon="17.4792667">
        <ele>30.4188</ele>
        <time>2011-02-04T18:46:43Z</time>
      </trkpt>
      <trkpt lat="59.5483049" lon="17.4798102">
        <ele>26.0929</ele>
        <time>2011-02-04T18:46:47Z</time>
      </trkpt>
      <trkpt lat="59.5482376" lon="17.4802509">
        <ele>23.209</ele>
        <time>2011-02-04T18:46:51Z</time>
      </trkpt>
      <trkpt lat="59.5481346" lon="17.480548">
        <ele>23.6896</ele>
        <time>2011-02-04T18:46:55Z</time>
      </trkpt>
      <trkpt lat="59.5480705" lon="17.4807723">
        <ele>24.1703</ele>
        <time>2011-02-04T18:46:58Z</time>
      </trkpt>
      <trkpt lat="59.5480184" lon="17.4810979">
        <ele>24.1703</ele>
        <time>2011-02-04T18:47:03Z</time>
      </trkpt>
      <trkpt lat="59.5479941" lon="17.481438">
        <ele>23.6896</ele>
        <time>2011-02-04T18:47:08Z</time>
      </trkpt>
      <trkpt lat="59.5479905" lon="17.4816941">
        <ele>22.7283</ele>
        <time>2011-02-04T18:47:11Z</time>
      </trkpt>
      <trkpt lat="59.547974" lon="17.4819672">
        <ele>22.7283</ele>
        <time>2011-02-04T18:47:14Z</time>
      </trkpt>
      <trkpt lat="59.5479429" lon="17.4821316">
        <ele>23.6896</ele>
        <time>2011-02-04T18:47:16Z</time>
      </trkpt>
      <trkpt lat="59.5478666" lon="17.4824207">
        <ele>26.0929</ele>
        <time>2011-02-04T18:47:20Z</time>
      </trkpt>
      <trkpt lat="59.5478151" lon="17.482613">
        <ele>27.5349</ele>
        <time>2011-02-04T18:47:23Z</time>
      </trkpt>
      <trkpt lat="59.5476683" lon="17.4828257">
        <ele>30.4188</ele>
        <time>2011-02-04T18:47:28Z</time>
      </trkpt>
      <trkpt lat="59.5476057" lon="17.4829021">
        <ele>30.8995</ele>
        <time>2011-02-04T18:47:30Z</time>
      </trkpt>
      <trkpt lat="59.5474419" lon="17.4831316">
        <ele>32.3416</ele>
        <time>2011-02-04T18:47:35Z</time>
      </trkpt>
      <trkpt lat="59.547366" lon="17.4832539">
        <ele>31.8607</ele>
        <time>2011-02-04T18:47:37Z</time>
      </trkpt>
      <trkpt lat="59.5472747" lon="17.4836216">
        <ele>33.7834</ele>
        <time>2011-02-04T18:47:42Z</time>
      </trkpt>
      <trkpt lat="59.5472733" lon="17.4838529">
        <ele>34.7449</ele>
        <time>2011-02-04T18:47:45Z</time>
      </trkpt>
      <trkpt lat="59.5472862" lon="17.4840785">
        <ele>35.7061</ele>
        <time>2011-02-04T18:47:48Z</time>
      </trkpt>
      <trkpt lat="59.5474103" lon="17.4845043">
        <ele>38.1094</ele>
        <time>2011-02-04T18:47:54Z</time>
      </trkpt>
      <trkpt lat="59.5474623" lon="17.4847292">
        <ele>37.6287</ele>
        <time>2011-02-04T18:47:57Z</time>
      </trkpt>
      <trkpt lat="59.5475374" lon="17.4851072">
        <ele>40.5128</ele>
        <time>2011-02-04T18:48:03Z</time>
      </trkpt>
      <trkpt lat="59.5476527" lon="17.4852918">
        <ele>40.0321</ele>
        <time>2011-02-04T18:48:07Z</time>
      </trkpt>
      <trkpt lat="59.5476999" lon="17.4853156">
        <ele>40.0321</ele>
        <time>2011-02-04T18:48:08Z</time>
      </trkpt>
      <trkpt lat="59.5478421" lon="17.4853522">
        <ele>41.9547</ele>
        <time>2011-02-04T18:48:11Z</time>
      </trkpt>
      <trkpt lat="59.5480568" lon="17.4853729">
        <ele>40.9934</ele>
        <time>2011-02-04T18:48:16Z</time>
      </trkpt>
      <trkpt lat="59.5480906" lon="17.4853842">
        <ele>41.474</ele>
        <time>2011-02-04T18:48:17Z</time>
      </trkpt>
      <trkpt lat="59.5481693" lon="17.485416">
        <ele>39.5513</ele>
        <time>2011-02-04T18:48:19Z</time>
      </trkpt>
      <trkpt lat="59.5484273" lon="17.4857212">
        <ele>38.5901</ele>
        <time>2011-02-04T18:48:25Z</time>
      </trkpt>
      <trkpt lat="59.548502" lon="17.4858701">
        <ele>37.6287</ele>
        <time>2011-02-04T18:48:27Z</time>
      </trkpt>
      <trkpt lat="59.5486398" lon="17.4862825">
        <ele>37.1481</ele>
        <time>2011-02-04T18:48:32Z</time>
      </trkpt>
      <trkpt lat="59.5486595" lon="17.4863581">
        <ele>36.6675</ele>
        <time>2011-02-04T18:48:33Z</time>
      </trkpt>
      <trkpt lat="59.548708" lon="17.4864933">
        <ele>35.2255</ele>
        <time>2011-02-04T18:48:35Z</time>
      </trkpt>
      <trkpt lat="59.5487897" lon="17.4867709">
        <ele>33.3029</ele>
        <time>2011-02-04T18:48:39Z</time>
      </trkpt>
      <trkpt lat="59.5488334" lon="17.4869095">
        <ele>31.8607</ele>
        <time>2011-02-04T18:48:41Z</time>
      </trkpt>
      <trkpt lat="59.5489894" lon="17.4872446">
        <ele>30.4188</ele>
        <time>2011-02-04T18:48:46Z</time>
      </trkpt>
      <trkpt lat="59.5490292" lon="17.4873303">
        <ele>31.8607</ele>
        <time>2011-02-04T18:48:47Z</time>
      </trkpt>
      <trkpt lat="59.5491219" lon="17.4877466">
        <ele>29.4575</ele>
        <time>2011-02-04T18:48:51Z</time>
      </trkpt>
      <trkpt lat="59.5491306" lon="17.487948">
        <ele>27.0543</ele>
        <time>2011-02-04T18:48:53Z</time>
      </trkpt>
      <trkpt lat="59.5491297" lon="17.488235">
        <ele>24.651</ele>
        <time>2011-02-04T18:48:56Z</time>
      </trkpt>
      <trkpt lat="59.5491463" lon="17.488564">
        <ele>26.0929</ele>
        <time>2011-02-04T18:49:00Z</time>
      </trkpt>
      <trkpt lat="59.5491867" lon="17.488835">
        <ele>25.1317</ele>
        <time>2011-02-04T18:49:04Z</time>
      </trkpt>
      <trkpt lat="59.5492903" lon="17.4890892">
        <ele>25.1317</ele>
        <time>2011-02-04T18:49:08Z</time>
      </trkpt>
      <trkpt lat="59.549512" lon="17.4894882">
        <ele>26.5736</ele>
        <time>2011-02-04T18:49:13Z</time>
      </trkpt>
      <trkpt lat="59.5496594" lon="17.4897617">
        <ele>28.9769</ele>
        <time>2011-02-04T18:49:16Z</time>
      </trkpt>
      <trkpt lat="59.5497751" lon="17.4902128">
        <ele>28.0155</ele>
        <time>2011-02-04T18:49:20Z</time>
      </trkpt>
      <trkpt lat="59.5498211" lon="17.490519">
        <ele>25.6123</ele>
        <time>2011-02-04T18:49:23Z</time>
      </trkpt>
      <trkpt lat="59.5497145" lon="17.4908828">
        <ele>22.7283</ele>
        <time>2011-02-04T18:49:28Z</time>
      </trkpt>
      <trkpt lat="59.5495622" lon="17.4912751">
        <ele>18.4023</ele>
        <time>2011-02-04T18:49:34Z</time>
      </trkpt>
      <trkpt lat="59.5493701" lon="17.4917296">
        <ele>14.557</ele>
        <time>2011-02-04T18:49:40Z</time>
      </trkpt>
      <trkpt lat="59.5493177" lon="17.4918574">
        <ele>13.5958</ele>
        <time>2011-02-04T18:49:42Z</time>
      </trkpt>
      <trkpt lat="59.5491613" lon="17.4922831">
        <ele>12.6344</ele>
        <time>2011-02-04T18:49:48Z</time>
      </trkpt>
      <trkpt lat="59.5489997" lon="17.4925998">
        <ele>14.557</ele>
        <time>2011-02-04T18:49:53Z</time>
      </trkpt>
      <trkpt lat="59.5488571" lon="17.4927441">
        <ele>18.4023</ele>
        <time>2011-02-04T18:49:57Z</time>
      </trkpt>
      <trkpt lat="59.5487174" lon="17.492938">
        <ele>17.9218</ele>
        <time>2011-02-04T18:50:01Z</time>
      </trkpt>
      <trkpt lat="59.5484164" lon="17.4931716">
        <ele>17.4412</ele>
        <time>2011-02-04T18:50:08Z</time>
      </trkpt>
      <trkpt lat="59.5481538" lon="17.4934248">
        <ele>18.8831</ele>
        <time>2011-02-04T18:50:14Z</time>
      </trkpt>
      <trkpt lat="59.5480009" lon="17.4935404">
        <ele>19.3638</ele>
        <time>2011-02-04T18:50:18Z</time>
      </trkpt>
      <trkpt lat="59.5478759" lon="17.4936325">
        <ele>18.8831</ele>
        <time>2011-02-04T18:50:21Z</time>
      </trkpt>
      <trkpt lat="59.5478388" lon="17.4936404">
        <ele>18.8831</ele>
        <time>2011-02-04T18:50:22Z</time>
      </trkpt>
      <trkpt lat="59.5477719" lon="17.4936539">
        <ele>18.4023</ele>
        <time>2011-02-04T18:50:24Z</time>
      </trkpt>
      <trkpt lat="59.547573" lon="17.4937001">
        <ele>18.4023</ele>
        <time>2011-02-04T18:50:29Z</time>
      </trkpt>
      <trkpt lat="59.5473939" lon="17.4937174">
        <ele>19.8444</ele>
        <time>2011-02-04T18:50:33Z</time>
      </trkpt>
      <trkpt lat="59.5473562" lon="17.4937221">
        <ele>20.8057</ele>
        <time>2011-02-04T18:50:34Z</time>
      </trkpt>
      <trkpt lat="59.5472865" lon="17.4937153">
        <ele>21.767</ele>
        <time>2011-02-04T18:50:36Z</time>
      </trkpt>
      <trkpt lat="59.5471152" lon="17.4936426">
        <ele>22.7283</ele>
        <time>2011-02-04T18:50:41Z</time>
      </trkpt>
      <trkpt lat="59.5470428" lon="17.493561">
        <ele>24.1703</ele>
        <time>2011-02-04T18:50:44Z</time>
      </trkpt>
      <trkpt lat="59.5468981" lon="17.493354">
        <ele>28.4962</ele>
        <time>2011-02-04T18:50:49Z</time>
      </trkpt>
      <trkpt lat="59.5467608" lon="17.4932069">
        <ele>31.8607</ele>
        <time>2011-02-04T18:50:54Z</time>
      </trkpt>
      <trkpt lat="59.5466612" lon="17.4930716">
        <ele>33.7834</ele>
        <time>2011-02-04T18:50:58Z</time>
      </trkpt>
      <trkpt lat="59.5465625" lon="17.4928127">
        <ele>36.6675</ele>
        <time>2011-02-04T18:51:03Z</time>
      </trkpt>
      <trkpt lat="59.5465033" lon="17.4926405">
        <ele>38.1094</ele>
        <time>2011-02-04T18:51:06Z</time>
      </trkpt>
      <trkpt lat="59.5464369" lon="17.4923818">
        <ele>40.5128</ele>
        <time>2011-02-04T18:51:11Z</time>
      </trkpt>
      <trkpt lat="59.5463473" lon="17.4921544">
        <ele>40.0321</ele>
        <time>2011-02-04T18:51:16Z</time>
      </trkpt>
      <trkpt lat="59.5463365" lon="17.4921139">
        <ele>40.0321</ele>
        <time>2011-02-04T18:51:17Z</time>
      </trkpt>
      <trkpt lat="59.5462416" lon="17.4918268">
        <ele>40.0321</ele>
        <time>2011-02-04T18:51:22Z</time>
      </trkpt>
      <trkpt lat="59.5461692" lon="17.4915535">
        <ele>40.0321</ele>
        <time>2011-02-04T18:51:26Z</time>
      </trkpt>
      <trkpt lat="59.5461197" lon="17.4912939">
        <ele>39.0707</ele>
        <time>2011-02-04T18:51:29Z</time>
      </trkpt>
      <trkpt lat="59.5460308" lon="17.4910353">
        <ele>40.5128</ele>
        <time>2011-02-04T18:51:33Z</time>
      </trkpt>
      <trkpt lat="59.5458212" lon="17.4908747">
        <ele>42.4354</ele>
        <time>2011-02-04T18:51:38Z</time>
      </trkpt>
      <trkpt lat="59.5457811" lon="17.4908487">
        <ele>41.9547</ele>
        <time>2011-02-04T18:51:39Z</time>
      </trkpt>
      <trkpt lat="59.5456891" lon="17.4907865">
        <ele>42.916</ele>
        <time>2011-02-04T18:51:41Z</time>
      </trkpt>
      <trkpt lat="59.5455549" lon="17.490684">
        <ele>43.3966</ele>
        <time>2011-02-04T18:51:44Z</time>
      </trkpt>
      <trkpt lat="59.5453934" lon="17.4905288">
        <ele>42.916</ele>
        <time>2011-02-04T18:51:48Z</time>
      </trkpt>
      <trkpt lat="59.5452901" lon="17.4902107">
        <ele>38.1094</ele>
        <time>2011-02-04T18:51:53Z</time>
      </trkpt>
      <trkpt lat="59.5453204" lon="17.4899">
        <ele>36.1868</ele>
        <time>2011-02-04T18:51:56Z</time>
      </trkpt>
      <trkpt lat="59.5454216" lon="17.4894853">
        <ele>35.7061</ele>
        <time>2011-02-04T18:52:01Z</time>
      </trkpt>
      <trkpt lat="59.5454403" lon="17.489425">
        <ele>35.2255</ele>
        <time>2011-02-04T18:52:02Z</time>
      </trkpt>
      <trkpt lat="59.5455351" lon="17.4891965">
        <ele>35.7061</ele>
        <time>2011-02-04T18:52:06Z</time>
      </trkpt>
      <trkpt lat="59.5456275" lon="17.4890715">
        <ele>36.6675</ele>
        <time>2011-02-04T18:52:10Z</time>
      </trkpt>
      <trkpt lat="59.5457414" lon="17.4892">
        <ele>36.6675</ele>
        <time>2011-02-04T18:52:15Z</time>
      </trkpt>
      <trkpt lat="59.5459244" lon="17.4893631">
        <ele>37.6287</ele>
        <time>2011-02-04T18:52:19Z</time>
      </trkpt>
      <trkpt lat="59.5460658" lon="17.4893793">
        <ele>36.6675</ele>
        <time>2011-02-04T18:52:22Z</time>
      </trkpt>
      <trkpt lat="59.5461971" lon="17.4891696">
        <ele>35.7061</ele>
        <time>2011-02-04T18:52:26Z</time>
      </trkpt>
      <trkpt lat="59.5462226" lon="17.489115">
        <ele>34.7449</ele>
        <time>2011-02-04T18:52:27Z</time>
      </trkpt>
      <trkpt lat="59.5463858" lon="17.4889125">
        <ele>34.7449</ele>
        <time>2011-02-04T18:52:32Z</time>
      </trkpt>
      <trkpt lat="59.5465583" lon="17.4888556">
        <ele>34.7449</ele>
        <time>2011-02-04T18:52:36Z</time>
      </trkpt>
      <trkpt lat="59.5466791" lon="17.4889229">
        <ele>33.3029</ele>
        <time>2011-02-04T18:52:39Z</time>
      </trkpt>
      <trkpt lat="59.5468355" lon="17.4889952">
        <ele>33.7834</ele>
        <time>2011-02-04T18:52:44Z</time>
      </trkpt>
      <trkpt lat="59.5469795" lon="17.4889983">
        <ele>33.7834</ele>
        <time>2011-02-04T18:52:50Z</time>
      </trkpt>
      <trkpt lat="59.5471393" lon="17.4889696">
        <ele>35.2255</ele>
        <time>2011-02-04T18:52:55Z</time>
      </trkpt>
      <trkpt lat="59.5472918" lon="17.4890415">
        <ele>34.7449</ele>
        <time>2011-02-04T18:52:58Z</time>
      </trkpt>
      <trkpt lat="59.5474631" lon="17.4891518">
        <ele>35.2255</ele>
        <time>2011-02-04T18:53:01Z</time>
      </trkpt>
      <trkpt lat="59.5475551" lon="17.4891597">
        <ele>36.1868</ele>
        <time>2011-02-04T18:53:03Z</time>
      </trkpt>
      <trkpt lat="59.5477381" lon="17.4890918">
        <ele>35.7061</ele>
        <time>2011-02-04T18:53:07Z</time>
      </trkpt>
      <trkpt lat="59.5478549" lon="17.4889151">
        <ele>34.7449</ele>
        <time>2011-02-04T18:53:10Z</time>
      </trkpt>
      <trkpt lat="59.5479298" lon="17.4886246">
        <ele>35.7061</ele>
        <time>2011-02-04T18:53:14Z</time>
      </trkpt>
      <trkpt lat="59.5480273" lon="17.4884029">
        <ele>36.6675</ele>
        <time>2011-02-04T18:53:19Z</time>
      </trkpt>
      <trkpt lat="59.54808" lon="17.4883581">
        <ele>35.7061</ele>
        <time>2011-02-04T18:53:21Z</time>
      </trkpt>
      <trkpt lat="59.5482108" lon="17.4881669">
        <ele>36.1868</ele>
        <time>2011-02-04T18:53:26Z</time>
      </trkpt>
      <trkpt lat="59.5483711" lon="17.48793">
        <ele>35.2255</ele>
        <time>2011-02-04T18:53:31Z</time>
      </trkpt>
      <trkpt lat="59.548444" lon="17.4877989">
        <ele>35.2255</ele>
        <time>2011-02-04T18:53:33Z</time>
      </trkpt>
      <trkpt lat="59.5486224" lon="17.4874907">
        <ele>35.2255</ele>
        <time>2011-02-04T18:53:37Z</time>
      </trkpt>
      <trkpt lat="59.548722" lon="17.4869857">
        <ele>35.7061</ele>
        <time>2011-02-04T18:53:41Z</time>
      </trkpt>
      <trkpt lat="59.5486822" lon="17.486596">
        <ele>36.1868</ele>
        <time>2011-02-04T18:53:44Z</time>
      </trkpt>
      <trkpt lat="59.5485164" lon="17.485879">
        <ele>35.7061</ele>
        <time>2011-02-04T18:53:51Z</time>
      </trkpt>
      <trkpt lat="59.5483448" lon="17.4855598">
        <ele>36.6675</ele>
        <time>2011-02-04T18:53:56Z</time>
      </trkpt>
      <trkpt lat="59.5482657" lon="17.48547">
        <ele>36.6675</ele>
        <time>2011-02-04T18:53:58Z</time>
      </trkpt>
      <trkpt lat="59.548102" lon="17.4853992">
        <ele>36.1868</ele>
        <time>2011-02-04T18:54:02Z</time>
      </trkpt>
      <trkpt lat="59.5479952" lon="17.4853888">
        <ele>35.2255</ele>
        <time>2011-02-04T18:54:05Z</time>
      </trkpt>
      <trkpt lat="59.547869" lon="17.4853966">
        <ele>35.7061</ele>
        <time>2011-02-04T18:54:08Z</time>
      </trkpt>
      <trkpt lat="59.5476891" lon="17.4854047">
        <ele>34.7449</ele>
        <time>2011-02-04T18:54:12Z</time>
      </trkpt>
      <trkpt lat="59.5474851" lon="17.4853775">
        <ele>36.1868</ele>
        <time>2011-02-04T18:54:17Z</time>
      </trkpt>
      <trkpt lat="59.547325" lon="17.4854662">
        <ele>36.1868</ele>
        <time>2011-02-04T18:54:23Z</time>
      </trkpt>
      <trkpt lat="59.5472353" lon="17.4855696">
        <ele>36.6675</ele>
        <time>2011-02-04T18:54:27Z</time>
      </trkpt>
      <trkpt lat="59.5471359" lon="17.485716">
        <ele>36.6675</ele>
        <time>2011-02-04T18:54:32Z</time>
      </trkpt>
      <trkpt lat="59.5471197" lon="17.4857492">
        <ele>36.1868</ele>
        <time>2011-02-04T18:54:33Z</time>
      </trkpt>
      <trkpt lat="59.5470094" lon="17.4859159">
        <ele>32.8223</ele>
        <time>2011-02-04T18:54:38Z</time>
      </trkpt>
      <trkpt lat="59.5469296" lon="17.4860479">
        <ele>31.3801</ele>
        <time>2011-02-04T18:54:41Z</time>
      </trkpt>
      <trkpt lat="59.5467698" lon="17.4862738">
        <ele>31.3801</ele>
        <time>2011-02-04T18:54:46Z</time>
      </trkpt>
      <trkpt lat="59.5465923" lon="17.4864918">
        <ele>31.3801</ele>
        <time>2011-02-04T18:54:51Z</time>
      </trkpt>
      <trkpt lat="59.546553" lon="17.4865318">
        <ele>31.3801</ele>
        <time>2011-02-04T18:54:52Z</time>
      </trkpt>
      <trkpt lat="59.5463839" lon="17.4866483">
        <ele>31.3801</ele>
        <time>2011-02-04T18:54:55Z</time>
      </trkpt>
      <trkpt lat="59.5460494" lon="17.486742">
        <ele>38.1094</ele>
        <time>2011-02-04T18:54:59Z</time>
      </trkpt>
      <trkpt lat="59.5458541" lon="17.4867004">
        <ele>39.0707</ele>
        <time>2011-02-04T18:55:02Z</time>
      </trkpt>
      <trkpt lat="59.5455993" lon="17.4863432">
        <ele>36.6675</ele>
        <time>2011-02-04T18:55:07Z</time>
      </trkpt>
      <trkpt lat="59.5454801" lon="17.4861013">
        <ele>37.1481</ele>
        <time>2011-02-04T18:55:10Z</time>
      </trkpt>
      <trkpt lat="59.5454285" lon="17.4859172">
        <ele>35.2255</ele>
        <time>2011-02-04T18:55:12Z</time>
      </trkpt>
      <trkpt lat="59.5454124" lon="17.4857387">
        <ele>30.8995</ele>
        <time>2011-02-04T18:55:14Z</time>
      </trkpt>
      <trkpt lat="59.5453957" lon="17.4851498">
        <ele>20.8057</ele>
        <time>2011-02-04T18:55:19Z</time>
      </trkpt>
      <trkpt lat="59.5453892" lon="17.4850104">
        <ele>19.3638</ele>
        <time>2011-02-04T18:55:20Z</time>
      </trkpt>
      <trkpt lat="59.545434" lon="17.4845343">
        <ele>20.325</ele>
        <time>2011-02-04T18:55:24Z</time>
      </trkpt>
      <trkpt lat="59.5456228" lon="17.4842293">
        <ele>21.2864</ele>
        <time>2011-02-04T18:55:30Z</time>
      </trkpt>
      <trkpt lat="59.54566" lon="17.4841913">
        <ele>21.767</ele>
        <time>2011-02-04T18:55:31Z</time>
      </trkpt>
      <trkpt lat="59.5458046" lon="17.4840172">
        <ele>24.1703</ele>
        <time>2011-02-04T18:55:35Z</time>
      </trkpt>
      <trkpt lat="59.5459982" lon="17.4839965">
        <ele>27.5349</ele>
        <time>2011-02-04T18:55:40Z</time>
      </trkpt>
      <trkpt lat="59.5460277" lon="17.484032">
        <ele>28.9769</ele>
        <time>2011-02-04T18:55:41Z</time>
      </trkpt>
      <trkpt lat="59.5461398" lon="17.484296">
        <ele>37.1481</ele>
        <time>2011-02-04T18:55:46Z</time>
      </trkpt>
      <trkpt lat="59.5461629" lon="17.4843975">
        <ele>38.5901</ele>
        <time>2011-02-04T18:55:48Z</time>
      </trkpt>
      <trkpt lat="59.5461673" lon="17.4847297">
        <ele>38.1094</ele>
        <time>2011-02-04T18:55:54Z</time>
      </trkpt>
      <trkpt lat="59.5461733" lon="17.484809">
        <ele>37.1481</ele>
        <time>2011-02-04T18:55:56Z</time>
      </trkpt>
      <trkpt lat="59.546235" lon="17.4850506">
        <ele>37.1481</ele>
        <time>2011-02-04T18:56:02Z</time>
      </trkpt>
      <trkpt lat="59.5462589" lon="17.485096">
        <ele>38.5901</ele>
        <time>2011-02-04T18:56:04Z</time>
      </trkpt>
      <trkpt lat="59.5463416" lon="17.4853507">
        <ele>43.8773</ele>
        <time>2011-02-04T18:56:11Z</time>
      </trkpt>
      <trkpt lat="59.5463598" lon="17.4855043">
        <ele>43.8773</ele>
        <time>2011-02-04T18:56:15Z</time>
      </trkpt>
      <trkpt lat="59.5463967" lon="17.4856979">
        <ele>47.7225</ele>
        <time>2011-02-04T18:56:19Z</time>
      </trkpt>
      <trkpt lat="59.5464661" lon="17.4859735">
        <ele>49.1646</ele>
        <time>2011-02-04T18:56:24Z</time>
      </trkpt>
      <trkpt lat="59.5466661" lon="17.4861172">
        <ele>47.7225</ele>
        <time>2011-02-04T18:56:29Z</time>
      </trkpt>
      <trkpt lat="59.5467296" lon="17.4861392">
        <ele>47.2418</ele>
        <time>2011-02-04T18:56:30Z</time>
      </trkpt>
      <trkpt lat="59.54701" lon="17.4859356">
        <ele>40.0321</ele>
        <time>2011-02-04T18:56:35Z</time>
      </trkpt>
      <trkpt lat="59.5470923" lon="17.4857668">
        <ele>38.5901</ele>
        <time>2011-02-04T18:56:37Z</time>
      </trkpt>
      <trkpt lat="59.5472385" lon="17.4855658">
        <ele>36.6675</ele>
        <time>2011-02-04T18:56:40Z</time>
      </trkpt>
      <trkpt lat="59.5473434" lon="17.4854197">
        <ele>35.7061</ele>
        <time>2011-02-04T18:56:42Z</time>
      </trkpt>
      <trkpt lat="59.547484" lon="17.4848726">
        <ele>32.8223</ele>
        <time>2011-02-04T18:56:46Z</time>
      </trkpt>
      <trkpt lat="59.5474114" lon="17.4844429">
        <ele>31.8607</ele>
        <time>2011-02-04T18:56:49Z</time>
      </trkpt>
      <trkpt lat="59.5472794" lon="17.4841558">
        <ele>31.8607</ele>
        <time>2011-02-04T18:56:52Z</time>
      </trkpt>
      <trkpt lat="59.5471157" lon="17.4840541">
        <ele>33.7834</ele>
        <time>2011-02-04T18:56:56Z</time>
      </trkpt>
      <trkpt lat="59.546939" lon="17.484108">
        <ele>35.2255</ele>
        <time>2011-02-04T18:57:02Z</time>
      </trkpt>
      <trkpt lat="59.5468423" lon="17.4841717">
        <ele>36.1868</ele>
        <time>2011-02-04T18:57:07Z</time>
      </trkpt>
      <trkpt lat="59.5467132" lon="17.4842003">
        <ele>37.1481</ele>
        <time>2011-02-04T18:57:12Z</time>
      </trkpt>
      <trkpt lat="59.5465801" lon="17.4842137">
        <ele>38.5901</ele>
        <time>2011-02-04T18:57:16Z</time>
      </trkpt>
      <trkpt lat="59.5464128" lon="17.4840752">
        <ele>39.0707</ele>
        <time>2011-02-04T18:57:20Z</time>
      </trkpt>
      <trkpt lat="59.5463641" lon="17.4840147">
        <ele>39.0707</ele>
        <time>2011-02-04T18:57:21Z</time>
      </trkpt>
      <trkpt lat="59.5461816" lon="17.4838014">
        <ele>37.6287</ele>
        <time>2011-02-04T18:57:24Z</time>
      </trkpt>
      <trkpt lat="59.5460468" lon="17.4833046">
        <ele>32.3416</ele>
        <time>2011-02-04T18:57:28Z</time>
      </trkpt>
      <trkpt lat="59.5460507" lon="17.4831848">
        <ele>31.8607</ele>
        <time>2011-02-04T18:57:29Z</time>
      </trkpt>
      <trkpt lat="59.5460574" lon="17.4829599">
        <ele>30.8995</ele>
        <time>2011-02-04T18:57:31Z</time>
      </trkpt>
      <trkpt lat="59.5460729" lon="17.482861">
        <ele>30.8995</ele>
        <time>2011-02-04T18:57:32Z</time>
      </trkpt>
      <trkpt lat="59.5461767" lon="17.4825383">
        <ele>31.3801</ele>
        <time>2011-02-04T18:57:36Z</time>
      </trkpt>
      <trkpt lat="59.5461952" lon="17.482468">
        <ele>31.3801</ele>
        <time>2011-02-04T18:57:37Z</time>
      </trkpt>
      <trkpt lat="59.5462464" lon="17.4823292">
        <ele>31.8607</ele>
        <time>2011-02-04T18:57:39Z</time>
      </trkpt>
      <trkpt lat="59.5463892" lon="17.4822235">
        <ele>32.8223</ele>
        <time>2011-02-04T18:57:44Z</time>
      </trkpt>
      <trkpt lat="59.5465578" lon="17.4821722">
        <ele>31.8607</ele>
        <time>2011-02-04T18:57:49Z</time>
      </trkpt>
      <trkpt lat="59.5467159" lon="17.4821347">
        <ele>33.3029</ele>
        <time>2011-02-04T18:57:53Z</time>
      </trkpt>
      <trkpt lat="59.5468573" lon="17.4820981">
        <ele>31.8607</ele>
        <time>2011-02-04T18:57:56Z</time>
      </trkpt>
      <trkpt lat="59.5470204" lon="17.4819866">
        <ele>32.8223</ele>
        <time>2011-02-04T18:58:00Z</time>
      </trkpt>
      <trkpt lat="59.5471147" lon="17.4818078">
        <ele>30.8995</ele>
        <time>2011-02-04T18:58:05Z</time>
      </trkpt>
      <trkpt lat="59.5471365" lon="17.4816331">
        <ele>33.3029</ele>
        <time>2011-02-04T18:58:09Z</time>
      </trkpt>
      <trkpt lat="59.5470344" lon="17.4811266">
        <ele>39.5513</ele>
        <time>2011-02-04T18:58:15Z</time>
      </trkpt>
      <trkpt lat="59.5469955" lon="17.4810697">
        <ele>39.0707</ele>
        <time>2011-02-04T18:58:16Z</time>
      </trkpt>
      <trkpt lat="59.5467286" lon="17.4809506">
        <ele>36.6675</ele>
        <time>2011-02-04T18:58:20Z</time>
      </trkpt>
      <trkpt lat="59.5464695" lon="17.4807195">
        <ele>34.2642</ele>
        <time>2011-02-04T18:58:25Z</time>
      </trkpt>
      <trkpt lat="59.5464188" lon="17.480532">
        <ele>33.3029</ele>
        <time>2011-02-04T18:58:27Z</time>
      </trkpt>
      <trkpt lat="59.5463817" lon="17.48037">
        <ele>32.3416</ele>
        <time>2011-02-04T18:58:29Z</time>
      </trkpt>
      <trkpt lat="59.5462967" lon="17.4799696">
        <ele>32.8223</ele>
        <time>2011-02-04T18:58:35Z</time>
      </trkpt>
      <trkpt lat="59.5462966" lon="17.4799203">
        <ele>33.3029</ele>
        <time>2011-02-04T18:58:36Z</time>
      </trkpt>
      <trkpt lat="59.5462971" lon="17.4796341">
        <ele>35.7061</ele>
        <time>2011-02-04T18:58:41Z</time>
      </trkpt>
      <trkpt lat="59.546354" lon="17.4793421">
        <ele>36.6675</ele>
        <time>2011-02-04T18:58:45Z</time>
      </trkpt>
      <trkpt lat="59.5464552" lon="17.4790372">
        <ele>35.2255</ele>
        <time>2011-02-04T18:58:49Z</time>
      </trkpt>
      <trkpt lat="59.5464722" lon="17.4789677">
        <ele>34.2642</ele>
        <time>2011-02-04T18:58:50Z</time>
      </trkpt>
      <trkpt lat="59.5464704" lon="17.4786244">
        <ele>35.2255</ele>
        <time>2011-02-04T18:58:54Z</time>
      </trkpt>
      <trkpt lat="59.5464721" lon="17.4785376">
        <ele>35.2255</ele>
        <time>2011-02-04T18:58:55Z</time>
      </trkpt>
      <trkpt lat="59.5464806" lon="17.4783948">
        <ele>34.7449</ele>
        <time>2011-02-04T18:58:57Z</time>
      </trkpt>
      <trkpt lat="59.5465557" lon="17.4781735">
        <ele>33.3029</ele>
        <time>2011-02-04T18:59:01Z</time>
      </trkpt>
      <trkpt lat="59.5467118" lon="17.4778379">
        <ele>30.8995</ele>
        <time>2011-02-04T18:59:06Z</time>
      </trkpt>
      <trkpt lat="59.5467604" lon="17.4776893">
        <ele>29.9381</ele>
        <time>2011-02-04T18:59:07Z</time>
      </trkpt>
      <trkpt lat="59.546842" lon="17.477046">
        <ele>30.4188</ele>
        <time>2011-02-04T18:59:12Z</time>
      </trkpt>
      <trkpt lat="59.546835" lon="17.4768751">
        <ele>31.3801</ele>
        <time>2011-02-04T18:59:14Z</time>
      </trkpt>
      <trkpt lat="59.5468128" lon="17.4767366">
        <ele>30.8995</ele>
        <time>2011-02-04T18:59:16Z</time>
      </trkpt>
      <trkpt lat="59.5467012" lon="17.4765759">
        <ele>34.2642</ele>
        <time>2011-02-04T18:59:21Z</time>
      </trkpt>
      <trkpt lat="59.5465796" lon="17.4765486">
        <ele>34.7449</ele>
        <time>2011-02-04T18:59:26Z</time>
      </trkpt>
      <trkpt lat="59.5464652" lon="17.4767358">
        <ele>36.1868</ele>
        <time>2011-02-04T18:59:31Z</time>
      </trkpt>
      <trkpt lat="59.5463131" lon="17.4769807">
        <ele>35.2255</ele>
        <time>2011-02-04T18:59:35Z</time>
      </trkpt>
      <trkpt lat="59.5460761" lon="17.4771216">
        <ele>34.2642</ele>
        <time>2011-02-04T18:59:39Z</time>
      </trkpt>
      <trkpt lat="59.5458072" lon="17.4773939">
        <ele>35.2255</ele>
        <time>2011-02-04T18:59:44Z</time>
      </trkpt>
      <trkpt lat="59.5456449" lon="17.47732">
        <ele>30.8995</ele>
        <time>2011-02-04T18:59:47Z</time>
      </trkpt>
      <trkpt lat="59.5455637" lon="17.477092">
        <ele>29.4575</ele>
        <time>2011-02-04T18:59:49Z</time>
      </trkpt>
      <trkpt lat="59.5455114" lon="17.476736">
        <ele>26.0929</ele>
        <time>2011-02-04T18:59:52Z</time>
      </trkpt>
      <trkpt lat="59.5454938" lon="17.4764016">
        <ele>23.6896</ele>
        <time>2011-02-04T18:59:55Z</time>
      </trkpt>
      <trkpt lat="59.5454622" lon="17.4759819">
        <ele>22.7283</ele>
        <time>2011-02-04T18:59:59Z</time>
      </trkpt>
      <trkpt lat="59.5453973" lon="17.4757593">
        <ele>23.209</ele>
        <time>2011-02-04T19:00:02Z</time>
      </trkpt>
      <trkpt lat="59.5453529" lon="17.475407">
        <ele>24.1703</ele>
        <time>2011-02-04T19:00:06Z</time>
      </trkpt>
      <trkpt lat="59.5454706" lon="17.4750614">
        <ele>26.0929</ele>
        <time>2011-02-04T19:00:10Z</time>
      </trkpt>
      <trkpt lat="59.5455657" lon="17.4749064">
        <ele>25.6123</ele>
        <time>2011-02-04T19:00:12Z</time>
      </trkpt>
      <trkpt lat="59.5457871" lon="17.4746092">
        <ele>24.651</ele>
        <time>2011-02-04T19:00:17Z</time>
      </trkpt>
      <trkpt lat="59.5459279" lon="17.4744">
        <ele>28.4962</ele>
        <time>2011-02-04T19:00:21Z</time>
      </trkpt>
      <trkpt lat="59.5460013" lon="17.4743254">
        <ele>30.4188</ele>
        <time>2011-02-04T19:00:23Z</time>
      </trkpt>
      <trkpt lat="59.5460998" lon="17.4741824">
        <ele>32.8223</ele>
        <time>2011-02-04T19:00:26Z</time>
      </trkpt>
      <trkpt lat="59.5460624" lon="17.4738408">
        <ele>33.7834</ele>
        <time>2011-02-04T19:00:31Z</time>
      </trkpt>
      <trkpt lat="59.5460367" lon="17.4732894">
        <ele>30.8995</ele>
        <time>2011-02-04T19:00:35Z</time>
      </trkpt>
      <trkpt lat="59.5462268" lon="17.4728564">
        <ele>28.4962</ele>
        <time>2011-02-04T19:00:40Z</time>
      </trkpt>
      <trkpt lat="59.5463158" lon="17.472718">
        <ele>29.4575</ele>
        <time>2011-02-04T19:00:43Z</time>
      </trkpt>
      <trkpt lat="59.546508" lon="17.4726366">
        <ele>29.9381</ele>
        <time>2011-02-04T19:00:48Z</time>
      </trkpt>
      <trkpt lat="59.5466389" lon="17.4726572">
        <ele>30.8995</ele>
        <time>2011-02-04T19:00:51Z</time>
      </trkpt>
      <trkpt lat="59.5466764" lon="17.4726611">
        <ele>30.8995</ele>
        <time>2011-02-04T19:00:52Z</time>
      </trkpt>
      <trkpt lat="59.546765" lon="17.4726663">
        <ele>29.4575</ele>
        <time>2011-02-04T19:00:54Z</time>
      </trkpt>
      <trkpt lat="59.5470161" lon="17.4726963">
        <ele>29.4575</ele>
        <time>2011-02-04T19:00:58Z</time>
      </trkpt>
      <trkpt lat="59.5471162" lon="17.4727114">
        <ele>29.4575</ele>
        <time>2011-02-04T19:01:00Z</time>
      </trkpt>
      <trkpt lat="59.5471882" lon="17.4727174">
        <ele>31.3801</ele>
        <time>2011-02-04T19:01:02Z</time>
      </trkpt>
      <trkpt lat="59.5473126" lon="17.4727935">
        <ele>31.8607</ele>
        <time>2011-02-04T19:01:07Z</time>
      </trkpt>
      <trkpt lat="59.5473413" lon="17.472817">
        <ele>33.3029</ele>
        <time>2011-02-04T19:01:08Z</time>
      </trkpt>
      <trkpt lat="59.5474574" lon="17.4729216">
        <ele>33.7834</ele>
        <time>2011-02-04T19:01:13Z</time>
      </trkpt>
      <trkpt lat="59.5475481" lon="17.4730173">
        <ele>37.6287</ele>
        <time>2011-02-04T19:01:16Z</time>
      </trkpt>
      <trkpt lat="59.5477486" lon="17.4732589">
        <ele>39.5513</ele>
        <time>2011-02-04T19:01:21Z</time>
      </trkpt>
      <trkpt lat="59.5477902" lon="17.4733646">
        <ele>40.0321</ele>
        <time>2011-02-04T19:01:23Z</time>
      </trkpt>
      <trkpt lat="59.5478295" lon="17.4736353">
        <ele>41.474</ele>
        <time>2011-02-04T19:01:28Z</time>
      </trkpt>
      <trkpt lat="59.5478373" lon="17.4736904">
        <ele>41.474</ele>
        <time>2011-02-04T19:01:29Z</time>
      </trkpt>
      <trkpt lat="59.5478597" lon="17.4739844">
        <ele>38.5901</ele>
        <time>2011-02-04T19:01:34Z</time>
      </trkpt>
      <trkpt lat="59.5478557" lon="17.4741173">
        <ele>37.6287</ele>
        <time>2011-02-04T19:01:36Z</time>
      </trkpt>
      <trkpt lat="59.547857" lon="17.4742342">
        <ele>37.1481</ele>
        <time>2011-02-04T19:01:38Z</time>
      </trkpt>
      <trkpt lat="59.5477674" lon="17.4744785">
        <ele>30.8995</ele>
        <time>2011-02-04T19:01:43Z</time>
      </trkpt>
      <trkpt lat="59.547642" lon="17.4746356">
        <ele>28.9769</ele>
        <time>2011-02-04T19:01:47Z</time>
      </trkpt>
      <trkpt lat="59.5475294" lon="17.4747415">
        <ele>28.4962</ele>
        <time>2011-02-04T19:01:51Z</time>
      </trkpt>
      <trkpt lat="59.5474115" lon="17.4747738">
        <ele>28.9769</ele>
        <time>2011-02-04T19:01:56Z</time>
      </trkpt>
      <trkpt lat="59.5473109" lon="17.4748437">
        <ele>29.4575</ele>
        <time>2011-02-04T19:02:00Z</time>
      </trkpt>
      <trkpt lat="59.5472291" lon="17.4749408">
        <ele>32.3416</ele>
        <time>2011-02-04T19:02:04Z</time>
      </trkpt>
      <trkpt lat="59.5471441" lon="17.4751247">
        <ele>33.7834</ele>
        <time>2011-02-04T19:02:09Z</time>
      </trkpt>
      <trkpt lat="59.5470753" lon="17.4753011">
        <ele>33.7834</ele>
        <time>2011-02-04T19:02:13Z</time>
      </trkpt>
      <trkpt lat="59.5470091" lon="17.4755127">
        <ele>33.3029</ele>
        <time>2011-02-04T19:02:17Z</time>
      </trkpt>
      <trkpt lat="59.5469498" lon="17.4757659">
        <ele>31.8607</ele>
        <time>2011-02-04T19:02:22Z</time>
      </trkpt>
      <trkpt lat="59.5468555" lon="17.4759991">
        <ele>33.7834</ele>
        <time>2011-02-04T19:02:26Z</time>
      </trkpt>
      <trkpt lat="59.5467354" lon="17.4763155">
        <ele>36.1868</ele>
        <time>2011-02-04T19:02:31Z</time>
      </trkpt>
      <trkpt lat="59.5467381" lon="17.4766664">
        <ele>37.1481</ele>
        <time>2011-02-04T19:02:35Z</time>
      </trkpt>
      <trkpt lat="59.5468592" lon="17.4769972">
        <ele>38.5901</ele>
        <time>2011-02-04T19:02:38Z</time>
      </trkpt>
      <trkpt lat="59.5468389" lon="17.4774807">
        <ele>38.1094</ele>
        <time>2011-02-04T19:02:42Z</time>
      </trkpt>
      <trkpt lat="59.5467712" lon="17.4777312">
        <ele>39.0707</ele>
        <time>2011-02-04T19:02:45Z</time>
      </trkpt>
      <trkpt lat="59.5467443" lon="17.4778347">
        <ele>39.0707</ele>
        <time>2011-02-04T19:02:47Z</time>
      </trkpt>
      <trkpt lat="59.5466385" lon="17.4780365">
        <ele>39.5513</ele>
        <time>2011-02-04T19:02:53Z</time>
      </trkpt>
      <trkpt lat="59.5465232" lon="17.4781885">
        <ele>40.9934</ele>
        <time>2011-02-04T19:02:59Z</time>
      </trkpt>
      <trkpt lat="59.5464552" lon="17.4783963">
        <ele>37.6287</ele>
        <time>2011-02-04T19:03:03Z</time>
      </trkpt>
      <trkpt lat="59.5464506" lon="17.4787835">
        <ele>36.6675</ele>
        <time>2011-02-04T19:03:07Z</time>
      </trkpt>
      <trkpt lat="59.5464465" lon="17.4790557">
        <ele>34.7449</ele>
        <time>2011-02-04T19:03:10Z</time>
      </trkpt>
      <trkpt lat="59.5464473" lon="17.4792325">
        <ele>32.8223</ele>
        <time>2011-02-04T19:03:12Z</time>
      </trkpt>
      <trkpt lat="59.5464469" lon="17.479726">
        <ele>29.4575</ele>
        <time>2011-02-04T19:03:17Z</time>
      </trkpt>
      <trkpt lat="59.5464562" lon="17.4799214">
        <ele>28.4962</ele>
        <time>2011-02-04T19:03:19Z</time>
      </trkpt>
      <trkpt lat="59.5464664" lon="17.4803579">
        <ele>28.0155</ele>
        <time>2011-02-04T19:03:24Z</time>
      </trkpt>
      <trkpt lat="59.5464775" lon="17.4804501">
        <ele>27.5349</ele>
        <time>2011-02-04T19:03:25Z</time>
      </trkpt>
      <trkpt lat="59.5465039" lon="17.4806166">
        <ele>28.0155</ele>
        <time>2011-02-04T19:03:27Z</time>
      </trkpt>
      <trkpt lat="59.5465386" lon="17.480711">
        <ele>28.4962</ele>
        <time>2011-02-04T19:03:29Z</time>
      </trkpt>
      <trkpt lat="59.5466867" lon="17.4808913">
        <ele>30.8995</ele>
        <time>2011-02-04T19:03:34Z</time>
      </trkpt>
      <trkpt lat="59.5468049" lon="17.4809678">
        <ele>32.8223</ele>
        <time>2011-02-04T19:03:37Z</time>
      </trkpt>
      <trkpt lat="59.5468607" lon="17.4809968">
        <ele>34.2642</ele>
        <time>2011-02-04T19:03:39Z</time>
      </trkpt>
      <trkpt lat="59.5469837" lon="17.4810217">
        <ele>39.5513</ele>
        <time>2011-02-04T19:03:45Z</time>
      </trkpt>
      <trkpt lat="59.5471003" lon="17.4809698">
        <ele>40.5128</ele>
        <time>2011-02-04T19:03:50Z</time>
      </trkpt>
      <trkpt lat="59.5472455" lon="17.480744">
        <ele>40.5128</ele>
        <time>2011-02-04T19:03:55Z</time>
      </trkpt>
      <trkpt lat="59.5473483" lon="17.4805465">
        <ele>40.0321</ele>
        <time>2011-02-04T19:03:58Z</time>
      </trkpt>
      <trkpt lat="59.5474135" lon="17.4804183">
        <ele>39.0707</ele>
        <time>2011-02-04T19:04:00Z</time>
      </trkpt>
      <trkpt lat="59.5474975" lon="17.4802322">
        <ele>38.1094</ele>
        <time>2011-02-04T19:04:03Z</time>
      </trkpt>
      <trkpt lat="59.5476953" lon="17.4798037">
        <ele>35.2255</ele>
        <time>2011-02-04T19:04:09Z</time>
      </trkpt>
      <trkpt lat="59.5477319" lon="17.4797146">
        <ele>35.2255</ele>
        <time>2011-02-04T19:04:10Z</time>
      </trkpt>
      <trkpt lat="59.547818" lon="17.4794007">
        <ele>32.8223</ele>
        <time>2011-02-04T19:04:13Z</time>
      </trkpt>
      <trkpt lat="59.5479645" lon="17.4790725">
        <ele>34.2642</ele>
        <time>2011-02-04T19:04:17Z</time>
      </trkpt>
      <trkpt lat="59.5480959" lon="17.4791267">
        <ele>34.2642</ele>
        <time>2011-02-04T19:04:20Z</time>
      </trkpt>
      <trkpt lat="59.5482564" lon="17.4795175">
        <ele>34.2642</ele>
        <time>2011-02-04T19:04:25Z</time>
      </trkpt>
      <trkpt lat="59.5483091" lon="17.4800209">
        <ele>32.3416</ele>
        <time>2011-02-04T19:04:29Z</time>
      </trkpt>
      <trkpt lat="59.5482539" lon="17.4802075">
        <ele>32.8223</ele>
        <time>2011-02-04T19:04:31Z</time>
      </trkpt>
      <trkpt lat="59.5481906" lon="17.480433">
        <ele>32.8223</ele>
        <time>2011-02-04T19:04:34Z</time>
      </trkpt>
      <trkpt lat="59.5481306" lon="17.4806763">
        <ele>31.3801</ele>
        <time>2011-02-04T19:04:38Z</time>
      </trkpt>
      <trkpt lat="59.5481018" lon="17.4808829">
        <ele>30.8995</ele>
        <time>2011-02-04T19:04:41Z</time>
      </trkpt>
      <trkpt lat="59.5480502" lon="17.4811717">
        <ele>33.7834</ele>
        <time>2011-02-04T19:04:45Z</time>
      </trkpt>
      <trkpt lat="59.5480498" lon="17.4812407">
        <ele>33.7834</ele>
        <time>2011-02-04T19:04:46Z</time>
      </trkpt>
      <trkpt lat="59.5480288" lon="17.4816395">
        <ele>34.7449</ele>
        <time>2011-02-04T19:04:51Z</time>
      </trkpt>
      <trkpt lat="59.5479775" lon="17.4820117">
        <ele>35.7061</ele>
        <time>2011-02-04T19:04:55Z</time>
      </trkpt>
      <trkpt lat="59.5479601" lon="17.4820958">
        <ele>35.2255</ele>
        <time>2011-02-04T19:04:56Z</time>
      </trkpt>
      <trkpt lat="59.5478568" lon="17.482427">
        <ele>37.1481</ele>
        <time>2011-02-04T19:05:01Z</time>
      </trkpt>
      <trkpt lat="59.5478379" lon="17.482474">
        <ele>37.6287</ele>
        <time>2011-02-04T19:05:02Z</time>
      </trkpt>
      <trkpt lat="59.5477865" lon="17.4825856">
        <ele>37.6287</ele>
        <time>2011-02-04T19:05:04Z</time>
      </trkpt>
      <trkpt lat="59.5476446" lon="17.4828293">
        <ele>36.6675</ele>
        <time>2011-02-04T19:05:10Z</time>
      </trkpt>
      <trkpt lat="59.5475497" lon="17.4829394">
        <ele>36.1868</ele>
        <time>2011-02-04T19:05:13Z</time>
      </trkpt>
      <trkpt lat="59.5474007" lon="17.4831155">
        <ele>34.7449</ele>
        <time>2011-02-04T19:05:17Z</time>
      </trkpt>
      <trkpt lat="59.5473219" lon="17.4833331">
        <ele>31.8607</ele>
        <time>2011-02-04T19:05:20Z</time>
      </trkpt>
      <trkpt lat="59.5472592" lon="17.4837132">
        <ele>31.8607</ele>
        <time>2011-02-04T19:05:25Z</time>
      </trkpt>
      <trkpt lat="59.5472947" lon="17.4840266">
        <ele>32.8223</ele>
        <time>2011-02-04T19:05:29Z</time>
      </trkpt>
      <trkpt lat="59.5473644" lon="17.4843388">
        <ele>34.2642</ele>
        <time>2011-02-04T19:05:33Z</time>
      </trkpt>
      <trkpt lat="59.5474753" lon="17.4846007">
        <ele>38.5901</ele>
        <time>2011-02-04T19:05:37Z</time>
      </trkpt>
      <trkpt lat="59.5475208" lon="17.4848268">
        <ele>39.0707</ele>
        <time>2011-02-04T19:05:40Z</time>
      </trkpt>
      <trkpt lat="59.5475763" lon="17.4851101">
        <ele>39.5513</ele>
        <time>2011-02-04T19:05:44Z</time>
      </trkpt>
      <trkpt lat="59.5476388" lon="17.4853833">
        <ele>40.0321</ele>
        <time>2011-02-04T19:05:48Z</time>
      </trkpt>
      <trkpt lat="59.5478014" lon="17.4854168">
        <ele>36.6675</ele>
        <time>2011-02-04T19:05:52Z</time>
      </trkpt>
      <trkpt lat="59.5479186" lon="17.4853999">
        <ele>36.1868</ele>
        <time>2011-02-04T19:05:54Z</time>
      </trkpt>
      <trkpt lat="59.5481687" lon="17.4854134">
        <ele>34.2642</ele>
        <time>2011-02-04T19:05:59Z</time>
      </trkpt>
      <trkpt lat="59.5483206" lon="17.4855232">
        <ele>33.7834</ele>
        <time>2011-02-04T19:06:02Z</time>
      </trkpt>
      <trkpt lat="59.5485714" lon="17.4858444">
        <ele>34.7449</ele>
        <time>2011-02-04T19:06:08Z</time>
      </trkpt>
      <trkpt lat="59.5486224" lon="17.4859846">
        <ele>36.6675</ele>
        <time>2011-02-04T19:06:10Z</time>
      </trkpt>
      <trkpt lat="59.5487397" lon="17.4863826">
        <ele>38.5901</ele>
        <time>2011-02-04T19:06:15Z</time>
      </trkpt>
      <trkpt lat="59.5487578" lon="17.4867686">
        <ele>41.474</ele>
        <time>2011-02-04T19:06:20Z</time>
      </trkpt>
      <trkpt lat="59.5487723" lon="17.4868455">
        <ele>41.474</ele>
        <time>2011-02-04T19:06:21Z</time>
      </trkpt>
      <trkpt lat="59.548836" lon="17.4870451">
        <ele>40.9934</ele>
        <time>2011-02-04T19:06:24Z</time>
      </trkpt>
      <trkpt lat="59.5489867" lon="17.4873507">
        <ele>40.5128</ele>
        <time>2011-02-04T19:06:28Z</time>
      </trkpt>
      <trkpt lat="59.54904" lon="17.4876802">
        <ele>38.5901</ele>
        <time>2011-02-04T19:06:31Z</time>
      </trkpt>
      <trkpt lat="59.5490785" lon="17.487887">
        <ele>37.6287</ele>
        <time>2011-02-04T19:06:33Z</time>
      </trkpt>
      <trkpt lat="59.5490659" lon="17.4883182">
        <ele>39.0707</ele>
        <time>2011-02-04T19:06:37Z</time>
      </trkpt>
      <trkpt lat="59.5490511" lon="17.4885779">
        <ele>38.5901</ele>
        <time>2011-02-04T19:06:40Z</time>
      </trkpt>
      <trkpt lat="59.5491023" lon="17.488897">
        <ele>40.0321</ele>
        <time>2011-02-04T19:06:45Z</time>
      </trkpt>
      <trkpt lat="59.5492202" lon="17.4891784">
        <ele>40.5128</ele>
        <time>2011-02-04T19:06:49Z</time>
      </trkpt>
      <trkpt lat="59.5496182" lon="17.4897428">
        <ele>37.6287</ele>
        <time>2011-02-04T19:06:56Z</time>
      </trkpt>
      <trkpt lat="59.5497073" lon="17.4899174">
        <ele>37.1481</ele>
        <time>2011-02-04T19:06:58Z</time>
      </trkpt>
      <trkpt lat="59.5497814" lon="17.4903324">
        <ele>34.7449</ele>
        <time>2011-02-04T19:07:02Z</time>
      </trkpt>
      <trkpt lat="59.5497304" lon="17.4906059">
        <ele>32.8223</ele>
        <time>2011-02-04T19:07:05Z</time>
      </trkpt>
      <trkpt lat="59.5495642" lon="17.4911069">
        <ele>29.4575</ele>
        <time>2011-02-04T19:07:11Z</time>
      </trkpt>
      <trkpt lat="59.5495313" lon="17.4911876">
        <ele>28.9769</ele>
        <time>2011-02-04T19:07:12Z</time>
      </trkpt>
      <trkpt lat="59.5494607" lon="17.4913418">
        <ele>28.9769</ele>
        <time>2011-02-04T19:07:14Z</time>
      </trkpt>
      <trkpt lat="59.5493394" lon="17.4916616">
        <ele>29.9381</ele>
        <time>2011-02-04T19:07:18Z</time>
      </trkpt>
      <trkpt lat="59.5492287" lon="17.491971">
        <ele>28.9769</ele>
        <time>2011-02-04T19:07:22Z</time>
      </trkpt>
      <trkpt lat="59.5491419" lon="17.4921983">
        <ele>28.9769</ele>
        <time>2011-02-04T19:07:25Z</time>
      </trkpt>
      <trkpt lat="59.5490043" lon="17.4924939">
        <ele>29.9381</ele>
        <time>2011-02-04T19:07:29Z</time>
      </trkpt>
      <trkpt lat="59.5488355" lon="17.4927816">
        <ele>29.4575</ele>
        <time>2011-02-04T19:07:34Z</time>
      </trkpt>
      <trkpt lat="59.5487588" lon="17.4929095">
        <ele>28.9769</ele>
        <time>2011-02-04T19:07:36Z</time>
      </trkpt>
      <trkpt lat="59.5486635" lon="17.4930072">
        <ele>29.4575</ele>
        <time>2011-02-04T19:07:38Z</time>
      </trkpt>
      <trkpt lat="59.5484849" lon="17.4931391">
        <ele>28.0155</ele>
        <time>2011-02-04T19:07:42Z</time>
      </trkpt>
      <trkpt lat="59.5482381" lon="17.4933265">
        <ele>28.0155</ele>
        <time>2011-02-04T19:07:47Z</time>
      </trkpt>
      <trkpt lat="59.5480315" lon="17.4935234">
        <ele>30.8995</ele>
        <time>2011-02-04T19:07:51Z</time>
      </trkpt>
      <trkpt lat="59.5478466" lon="17.4936342">
        <ele>29.9381</ele>
        <time>2011-02-04T19:07:55Z</time>
      </trkpt>
      <trkpt lat="59.5477312" lon="17.4936987">
        <ele>28.4962</ele>
        <time>2011-02-04T19:07:58Z</time>
      </trkpt>
      <trkpt lat="59.5476451" lon="17.4937205">
        <ele>27.5349</ele>
        <time>2011-02-04T19:08:00Z</time>
      </trkpt>
      <trkpt lat="59.5475295" lon="17.4937289">
        <ele>27.5349</ele>
        <time>2011-02-04T19:08:03Z</time>
      </trkpt>
      <trkpt lat="59.5473948" lon="17.4937588">
        <ele>28.9769</ele>
        <time>2011-02-04T19:08:06Z</time>
      </trkpt>
      <trkpt lat="59.5472654" lon="17.4937677">
        <ele>30.4188</ele>
        <time>2011-02-04T19:08:09Z</time>
      </trkpt>
      <trkpt lat="59.5471074" lon="17.4937239">
        <ele>28.4962</ele>
        <time>2011-02-04T19:08:14Z</time>
      </trkpt>
      <trkpt lat="59.5470127" lon="17.4936143">
        <ele>27.5349</ele>
        <time>2011-02-04T19:08:18Z</time>
      </trkpt>
      <trkpt lat="59.5468997" lon="17.4934418">
        <ele>27.5349</ele>
        <time>2011-02-04T19:08:23Z</time>
      </trkpt>
      <trkpt lat="59.5468316" lon="17.4933208">
        <ele>28.4962</ele>
        <time>2011-02-04T19:08:27Z</time>
      </trkpt>
      <trkpt lat="59.5467624" lon="17.4932649">
        <ele>29.4575</ele>
        <time>2011-02-04T19:08:30Z</time>
      </trkpt>
      <trkpt lat="59.5466764" lon="17.4931462">
        <ele>34.2642</ele>
        <time>2011-02-04T19:08:34Z</time>
      </trkpt>
      <trkpt lat="59.5466061" lon="17.4929251">
        <ele>38.1094</ele>
        <time>2011-02-04T19:08:39Z</time>
      </trkpt>
      <trkpt lat="59.5465472" lon="17.4927568">
        <ele>38.1094</ele>
        <time>2011-02-04T19:08:42Z</time>
      </trkpt>
      <trkpt lat="59.546478" lon="17.4924904">
        <ele>37.1481</ele>
        <time>2011-02-04T19:08:47Z</time>
      </trkpt>
      <trkpt lat="59.5464271" lon="17.4922832">
        <ele>36.1868</ele>
        <time>2011-02-04T19:08:51Z</time>
      </trkpt>
      <trkpt lat="59.5463439" lon="17.4920123">
        <ele>37.6287</ele>
        <time>2011-02-04T19:08:56Z</time>
      </trkpt>
      <trkpt lat="59.5462091" lon="17.4917023">
        <ele>38.1094</ele>
        <time>2011-02-04T19:09:01Z</time>
      </trkpt>
      <trkpt lat="59.5461159" lon="17.491341">
        <ele>40.5128</ele>
        <time>2011-02-04T19:09:06Z</time>
      </trkpt>
      <trkpt lat="59.5460289" lon="17.4910025">
        <ele>40.0321</ele>
        <time>2011-02-04T19:09:11Z</time>
      </trkpt>
      <trkpt lat="59.5459116" lon="17.4908731">
        <ele>39.5513</ele>
        <time>2011-02-04T19:09:15Z</time>
      </trkpt>
      <trkpt lat="59.545683" lon="17.4907468">
        <ele>38.5901</ele>
        <time>2011-02-04T19:09:20Z</time>
      </trkpt>
      <trkpt lat="59.5455011" lon="17.4906047">
        <ele>39.0707</ele>
        <time>2011-02-04T19:09:24Z</time>
      </trkpt>
      <trkpt lat="59.5454291" lon="17.4905354">
        <ele>40.5128</ele>
        <time>2011-02-04T19:09:26Z</time>
      </trkpt>
      <trkpt lat="59.5453306" lon="17.4903876">
        <ele>40.5128</ele>
        <time>2011-02-04T19:09:29Z</time>
      </trkpt>
      <trkpt lat="59.5452791" lon="17.4899884">
        <ele>41.474</ele>
        <time>2011-02-04T19:09:34Z</time>
      </trkpt>
      <trkpt lat="59.545301" lon="17.489836">
        <ele>40.0321</ele>
        <time>2011-02-04T19:09:36Z</time>
      </trkpt>
      <trkpt lat="59.5453784" lon="17.4894642">
        <ele>38.1094</ele>
        <time>2011-02-04T19:09:41Z</time>
      </trkpt>
      <trkpt lat="59.5454213" lon="17.4893216">
        <ele>37.1481</ele>
        <time>2011-02-04T19:09:43Z</time>
      </trkpt>
      <trkpt lat="59.5455786" lon="17.4891232">
        <ele>39.0707</ele>
        <time>2011-02-04T19:09:49Z</time>
      </trkpt>
      <trkpt lat="59.5456459" lon="17.4891611">
        <ele>40.5128</ele>
        <time>2011-02-04T19:09:52Z</time>
      </trkpt>
      <trkpt lat="59.545847" lon="17.4893498">
        <ele>41.474</ele>
        <time>2011-02-04T19:09:58Z</time>
      </trkpt>
      <trkpt lat="59.5460237" lon="17.4894062">
        <ele>39.0707</ele>
        <time>2011-02-04T19:10:01Z</time>
      </trkpt>
      <trkpt lat="59.5462263" lon="17.4892424">
        <ele>37.1481</ele>
        <time>2011-02-04T19:10:06Z</time>
      </trkpt>
      <trkpt lat="59.5462851" lon="17.4891648">
        <ele>36.6675</ele>
        <time>2011-02-04T19:10:08Z</time>
      </trkpt>
      <trkpt lat="59.5464769" lon="17.4889213">
        <ele>35.2255</ele>
        <time>2011-02-04T19:10:14Z</time>
      </trkpt>
      <trkpt lat="59.5466429" lon="17.48893">
        <ele>40.9934</ele>
        <time>2011-02-04T19:10:18Z</time>
      </trkpt>
      <trkpt lat="59.5467265" lon="17.4889804">
        <ele>40.5128</ele>
        <time>2011-02-04T19:10:20Z</time>
      </trkpt>
      <trkpt lat="59.5468754" lon="17.4890529">
        <ele>41.474</ele>
        <time>2011-02-04T19:10:25Z</time>
      </trkpt>
      <trkpt lat="59.5469494" lon="17.489031">
        <ele>40.5128</ele>
        <time>2011-02-04T19:10:29Z</time>
      </trkpt>
      <trkpt lat="59.5470713" lon="17.4889762">
        <ele>41.474</ele>
        <time>2011-02-04T19:10:34Z</time>
      </trkpt>
      <trkpt lat="59.5472498" lon="17.4890004">
        <ele>42.4354</ele>
        <time>2011-02-04T19:10:38Z</time>
      </trkpt>
      <trkpt lat="59.5473686" lon="17.4890624">
        <ele>43.8773</ele>
        <time>2011-02-04T19:10:40Z</time>
      </trkpt>
      <trkpt lat="59.5476176" lon="17.4891615">
        <ele>44.358</ele>
        <time>2011-02-04T19:10:45Z</time>
      </trkpt>
      <trkpt lat="59.5477062" lon="17.489088">
        <ele>42.4354</ele>
        <time>2011-02-04T19:10:48Z</time>
      </trkpt>
      <trkpt lat="59.547798" lon="17.4888536">
        <ele>40.5128</ele>
        <time>2011-02-04T19:10:53Z</time>
      </trkpt>
      <trkpt lat="59.5479088" lon="17.4886054">
        <ele>38.1094</ele>
        <time>2011-02-04T19:10:57Z</time>
      </trkpt>
      <trkpt lat="59.5480574" lon="17.4884018">
        <ele>36.1868</ele>
        <time>2011-02-04T19:11:01Z</time>
      </trkpt>
      <trkpt lat="59.5480926" lon="17.4883577">
        <ele>36.1868</ele>
        <time>2011-02-04T19:11:02Z</time>
      </trkpt>
      <trkpt lat="59.5481693" lon="17.4882754">
        <ele>35.2255</ele>
        <time>2011-02-04T19:11:04Z</time>
      </trkpt>
      <trkpt lat="59.5483242" lon="17.4881221">
        <ele>33.7834</ele>
        <time>2011-02-04T19:11:08Z</time>
      </trkpt>
      <trkpt lat="59.5484651" lon="17.487867">
        <ele>33.3029</ele>
        <time>2011-02-04T19:11:13Z</time>
      </trkpt>
      <trkpt lat="59.5485903" lon="17.4876657">
        <ele>33.7834</ele>
        <time>2011-02-04T19:11:16Z</time>
      </trkpt>
      <trkpt lat="59.5487442" lon="17.4871509">
        <ele>30.8995</ele>
        <time>2011-02-04T19:11:21Z</time>
      </trkpt>
      <trkpt lat="59.5487278" lon="17.486751">
        <ele>30.4188</ele>
        <time>2011-02-04T19:11:24Z</time>
      </trkpt>
      <trkpt lat="59.5486937" lon="17.4866285">
        <ele>30.8995</ele>
        <time>2011-02-04T19:11:25Z</time>
      </trkpt>
      <trkpt lat="59.5485925" lon="17.4861898">
        <ele>31.3801</ele>
        <time>2011-02-04T19:11:29Z</time>
      </trkpt>
      <trkpt lat="59.5484634" lon="17.4858475">
        <ele>31.3801</ele>
        <time>2011-02-04T19:11:34Z</time>
      </trkpt>
      <trkpt lat="59.5483082" lon="17.4856677">
        <ele>32.3416</ele>
        <time>2011-02-04T19:11:38Z</time>
      </trkpt>
      <trkpt lat="59.5481606" lon="17.4855243">
        <ele>33.7834</ele>
        <time>2011-02-04T19:11:42Z</time>
      </trkpt>
      <trkpt lat="59.5480605" lon="17.485508">
        <ele>33.7834</ele>
        <time>2011-02-04T19:11:45Z</time>
      </trkpt>
      <trkpt lat="59.5479847" lon="17.4854845">
        <ele>33.3029</ele>
        <time>2011-02-04T19:11:47Z</time>
      </trkpt>
      <trkpt lat="59.5478606" lon="17.485488">
        <ele>31.8607</ele>
        <time>2011-02-04T19:11:50Z</time>
      </trkpt>
      <trkpt lat="59.54769" lon="17.4854616">
        <ele>33.7834</ele>
        <time>2011-02-04T19:11:54Z</time>
      </trkpt>
      <trkpt lat="59.5475786" lon="17.4854251">
        <ele>33.3029</ele>
        <time>2011-02-04T19:11:57Z</time>
      </trkpt>
      <trkpt lat="59.5473607" lon="17.4854418">
        <ele>35.7061</ele>
        <time>2011-02-04T19:12:03Z</time>
      </trkpt>
      <trkpt lat="59.5472214" lon="17.4855336">
        <ele>39.0707</ele>
        <time>2011-02-04T19:12:08Z</time>
      </trkpt>
      <trkpt lat="59.5471277" lon="17.4856501">
        <ele>41.474</ele>
        <time>2011-02-04T19:12:12Z</time>
      </trkpt>
      <trkpt lat="59.5469909" lon="17.485807">
        <ele>42.916</ele>
        <time>2011-02-04T19:12:17Z</time>
      </trkpt>
      <trkpt lat="59.5468966" lon="17.485926">
        <ele>42.4354</ele>
        <time>2011-02-04T19:12:22Z</time>
      </trkpt>
      <trkpt lat="59.546809" lon="17.4860437">
        <ele>44.8386</ele>
        <time>2011-02-04T19:12:26Z</time>
      </trkpt>
      <trkpt lat="59.5466902" lon="17.4861947">
        <ele>47.2418</ele>
        <time>2011-02-04T19:12:30Z</time>
      </trkpt>
      <trkpt lat="59.5465873" lon="17.4863694">
        <ele>48.2034</ele>
        <time>2011-02-04T19:12:35Z</time>
      </trkpt>
      <trkpt lat="59.5464314" lon="17.4866224">
        <ele>43.3966</ele>
        <time>2011-02-04T19:12:40Z</time>
      </trkpt>
      <trkpt lat="59.5463655" lon="17.4866774">
        <ele>43.8773</ele>
        <time>2011-02-04T19:12:41Z</time>
      </trkpt>
      <trkpt lat="59.5459714" lon="17.4867824">
        <ele>47.2418</ele>
        <time>2011-02-04T19:12:46Z</time>
      </trkpt>
      <trkpt lat="59.5457922" lon="17.4867217">
        <ele>44.8386</ele>
        <time>2011-02-04T19:12:49Z</time>
      </trkpt>
      <trkpt lat="59.5456053" lon="17.4864354">
        <ele>39.0707</ele>
        <time>2011-02-04T19:12:53Z</time>
      </trkpt>
      <trkpt lat="59.5454695" lon="17.4859775">
        <ele>32.3416</ele>
        <time>2011-02-04T19:12:58Z</time>
      </trkpt>
      <trkpt lat="59.545412" lon="17.485318">
        <ele>22.7283</ele>
        <time>2011-02-04T19:13:03Z</time>
      </trkpt>
      <trkpt lat="59.5453784" lon="17.4848722">
        <ele>23.209</ele>
        <time>2011-02-04T19:13:06Z</time>
      </trkpt>
      <trkpt lat="59.5454166" lon="17.4844292">
        <ele>21.767</ele>
        <time>2011-02-04T19:13:10Z</time>
      </trkpt>
      <trkpt lat="59.545557" lon="17.4842204">
        <ele>21.767</ele>
        <time>2011-02-04T19:13:15Z</time>
      </trkpt>
      <trkpt lat="59.5456314" lon="17.4841505">
        <ele>21.767</ele>
        <time>2011-02-04T19:13:17Z</time>
      </trkpt>
      <trkpt lat="59.5458182" lon="17.4838744">
        <ele>25.6123</ele>
        <time>2011-02-04T19:13:23Z</time>
      </trkpt>
      <trkpt lat="59.5460311" lon="17.4839862">
        <ele>33.3029</ele>
        <time>2011-02-04T19:13:28Z</time>
      </trkpt>
      <trkpt lat="59.5461143" lon="17.4842214">
        <ele>39.5513</ele>
        <time>2011-02-04T19:13:32Z</time>
      </trkpt>
      <trkpt lat="59.546139" lon="17.4842689">
        <ele>41.9547</ele>
        <time>2011-02-04T19:13:33Z</time>
      </trkpt>
      <trkpt lat="59.5461588" lon="17.4845519">
        <ele>46.2806</ele>
        <time>2011-02-04T19:13:38Z</time>
      </trkpt>
      <trkpt lat="59.5461383" lon="17.4848348">
        <ele>49.1646</ele>
        <time>2011-02-04T19:13:43Z</time>
      </trkpt>
      <trkpt lat="59.5461448" lon="17.4849627">
        <ele>52.5292</ele>
        <time>2011-02-04T19:13:46Z</time>
      </trkpt>
      <trkpt lat="59.5462432" lon="17.4851511">
        <ele>53.0098</ele>
        <time>2011-02-04T19:13:52Z</time>
      </trkpt>
      <trkpt lat="59.5462972" lon="17.4852519">
        <ele>53.9712</ele>
        <time>2011-02-04T19:13:56Z</time>
      </trkpt>
      <trkpt lat="59.546319" lon="17.4853028">
        <ele>54.9324</ele>
        <time>2011-02-04T19:13:58Z</time>
      </trkpt>
      <trkpt lat="59.546349" lon="17.4853609">
        <ele>54.9324</ele>
        <time>2011-02-04T19:14:00Z</time>
      </trkpt>
      <trkpt lat="59.5463484" lon="17.4856034">
        <ele>59.2584</ele>
        <time>2011-02-04T19:14:05Z</time>
      </trkpt>
      <trkpt lat="59.5463571" lon="17.4857137">
        <ele>59.2584</ele>
        <time>2011-02-04T19:14:07Z</time>
      </trkpt>
      <trkpt lat="59.5463724" lon="17.4857926">
        <ele>60.7003</ele>
        <time>2011-02-04T19:14:09Z</time>
      </trkpt>
      <trkpt lat="59.5464558" lon="17.4859719">
        <ele>60.2197</ele>
        <time>2011-02-04T19:14:13Z</time>
      </trkpt>
      <trkpt lat="59.5466654" lon="17.4860494">
        <ele>55.4131</ele>
        <time>2011-02-04T19:14:17Z</time>
      </trkpt>
      <trkpt lat="59.5467132" lon="17.4860034">
        <ele>54.4518</ele>
        <time>2011-02-04T19:14:18Z</time>
      </trkpt>
      <trkpt lat="59.5469863" lon="17.4856253">
        <ele>47.7225</ele>
        <time>2011-02-04T19:14:24Z</time>
      </trkpt>
      <trkpt lat="59.5472432" lon="17.4853541">
        <ele>41.9547</ele>
        <time>2011-02-04T19:14:29Z</time>
      </trkpt>
      <trkpt lat="59.5473598" lon="17.4852347">
        <ele>39.5513</ele>
        <time>2011-02-04T19:14:31Z</time>
      </trkpt>
      <trkpt lat="59.5474726" lon="17.4847488">
        <ele>36.6675</ele>
        <time>2011-02-04T19:14:35Z</time>
      </trkpt>
      <trkpt lat="59.5473955" lon="17.4843763">
        <ele>35.2255</ele>
        <time>2011-02-04T19:14:38Z</time>
      </trkpt>
      <trkpt lat="59.5472447" lon="17.4841173">
        <ele>32.8223</ele>
        <time>2011-02-04T19:14:42Z</time>
      </trkpt>
      <trkpt lat="59.5470704" lon="17.4840469">
        <ele>32.8223</ele>
        <time>2011-02-04T19:14:46Z</time>
      </trkpt>
      <trkpt lat="59.5469609" lon="17.4841096">
        <ele>36.1868</ele>
        <time>2011-02-04T19:14:50Z</time>
      </trkpt>
      <trkpt lat="59.546894" lon="17.484162">
        <ele>38.5901</ele>
        <time>2011-02-04T19:14:55Z</time>
      </trkpt>
      <trkpt lat="59.5467822" lon="17.4841748">
        <ele>39.5513</ele>
        <time>2011-02-04T19:15:00Z</time>
      </trkpt>
      <trkpt lat="59.5466496" lon="17.4842441">
        <ele>41.474</ele>
        <time>2011-02-04T19:15:05Z</time>
      </trkpt>
      <trkpt lat="59.5465464" lon="17.4842461">
        <ele>40.9934</ele>
        <time>2011-02-04T19:15:09Z</time>
      </trkpt>
      <trkpt lat="59.5463501" lon="17.4841266">
        <ele>44.358</ele>
        <time>2011-02-04T19:15:13Z</time>
      </trkpt>
      <trkpt lat="59.5462906" lon="17.4840636">
        <ele>44.8386</ele>
        <time>2011-02-04T19:15:14Z</time>
      </trkpt>
      <trkpt lat="59.5460641" lon="17.4836423">
        <ele>41.474</ele>
        <time>2011-02-04T19:15:18Z</time>
      </trkpt>
      <trkpt lat="59.5460527" lon="17.4829519">
        <ele>35.7061</ele>
        <time>2011-02-04T19:15:23Z</time>
      </trkpt>
      <trkpt lat="59.5460745" lon="17.4828709">
        <ele>35.2255</ele>
        <time>2011-02-04T19:15:24Z</time>
      </trkpt>
      <trkpt lat="59.5461891" lon="17.482499">
        <ele>32.8223</ele>
        <time>2011-02-04T19:15:29Z</time>
      </trkpt>
      <trkpt lat="59.5463545" lon="17.4822888">
        <ele>32.3416</ele>
        <time>2011-02-04T19:15:34Z</time>
      </trkpt>
      <trkpt lat="59.5464662" lon="17.4822831">
        <ele>32.3416</ele>
        <time>2011-02-04T19:15:37Z</time>
      </trkpt>
      <trkpt lat="59.5466158" lon="17.4822433">
        <ele>33.7834</ele>
        <time>2011-02-04T19:15:42Z</time>
      </trkpt>
      <trkpt lat="59.5467863" lon="17.4821798">
        <ele>35.2255</ele>
        <time>2011-02-04T19:15:47Z</time>
      </trkpt>
      <trkpt lat="59.5469852" lon="17.4820141">
        <ele>39.0707</ele>
        <time>2011-02-04T19:15:53Z</time>
      </trkpt>
      <trkpt lat="59.5471227" lon="17.4818846">
        <ele>40.0321</ele>
        <time>2011-02-04T19:15:58Z</time>
      </trkpt>
      <trkpt lat="59.5471467" lon="17.4816716">
        <ele>37.6287</ele>
        <time>2011-02-04T19:16:03Z</time>
      </trkpt>
      <trkpt lat="59.5470877" lon="17.4812056">
        <ele>34.7449</ele>
        <time>2011-02-04T19:16:09Z</time>
      </trkpt>
      <trkpt lat="59.5468515" lon="17.4810643">
        <ele>32.8223</ele>
        <time>2011-02-04T19:16:13Z</time>
      </trkpt>
      <trkpt lat="59.5466368" lon="17.4809694">
        <ele>32.3416</ele>
        <time>2011-02-04T19:16:16Z</time>
      </trkpt>
      <trkpt lat="59.5463991" lon="17.4806385">
        <ele>33.7834</ele>
        <time>2011-02-04T19:16:21Z</time>
      </trkpt>
      <trkpt lat="59.5463204" lon="17.4803843">
        <ele>31.8607</ele>
        <time>2011-02-04T19:16:24Z</time>
      </trkpt>
      <trkpt lat="59.5462727" lon="17.4800511">
        <ele>31.3801</ele>
        <time>2011-02-04T19:16:29Z</time>
      </trkpt>
      <trkpt lat="59.5462662" lon="17.4798018">
        <ele>32.8223</ele>
        <time>2011-02-04T19:16:33Z</time>
      </trkpt>
      <trkpt lat="59.5462707" lon="17.4794283">
        <ele>34.7449</ele>
        <time>2011-02-04T19:16:38Z</time>
      </trkpt>
      <trkpt lat="59.5463426" lon="17.4791589">
        <ele>38.1094</ele>
        <time>2011-02-04T19:16:42Z</time>
      </trkpt>
      <trkpt lat="59.5464084" lon="17.4790371">
        <ele>38.1094</ele>
        <time>2011-02-04T19:16:44Z</time>
      </trkpt>
      <trkpt lat="59.546466" lon="17.4786682">
        <ele>37.1481</ele>
        <time>2011-02-04T19:16:49Z</time>
      </trkpt>
      <trkpt lat="59.5464853" lon="17.4783985">
        <ele>37.1481</ele>
        <time>2011-02-04T19:16:53Z</time>
      </trkpt>
      <trkpt lat="59.5465303" lon="17.4781784">
        <ele>35.7061</ele>
        <time>2011-02-04T19:16:58Z</time>
      </trkpt>
      <trkpt lat="59.5466361" lon="17.4779666">
        <ele>33.7834</ele>
        <time>2011-02-04T19:17:02Z</time>
      </trkpt>
      <trkpt lat="59.5467806" lon="17.4776542">
        <ele>29.9381</ele>
        <time>2011-02-04T19:17:06Z</time>
      </trkpt>
      <trkpt lat="59.5468453" lon="17.4772007">
        <ele>28.9769</ele>
        <time>2011-02-04T19:17:10Z</time>
      </trkpt>
      <trkpt lat="59.546843" lon="17.477014">
        <ele>29.9381</ele>
        <time>2011-02-04T19:17:12Z</time>
      </trkpt>
      <trkpt lat="59.5467876" lon="17.4767989">
        <ele>30.8995</ele>
        <time>2011-02-04T19:17:16Z</time>
      </trkpt>
      <trkpt lat="59.5466841" lon="17.4766124">
        <ele>34.2642</ele>
        <time>2011-02-04T19:17:21Z</time>
      </trkpt>
      <trkpt lat="59.5465821" lon="17.4765627">
        <ele>36.6675</ele>
        <time>2011-02-04T19:17:25Z</time>
      </trkpt>
      <trkpt lat="59.5464761" lon="17.476664">
        <ele>39.0707</ele>
        <time>2011-02-04T19:17:29Z</time>
      </trkpt>
      <trkpt lat="59.5463599" lon="17.4768833">
        <ele>40.0321</ele>
        <time>2011-02-04T19:17:34Z</time>
      </trkpt>
      <trkpt lat="59.5460819" lon="17.4771237">
        <ele>39.0707</ele>
        <time>2011-02-04T19:17:39Z</time>
      </trkpt>
      <trkpt lat="59.5459443" lon="17.4772462">
        <ele>42.4354</ele>
        <time>2011-02-04T19:17:41Z</time>
      </trkpt>
      <trkpt lat="59.5457751" lon="17.4774372">
        <ele>45.7999</ele>
        <time>2011-02-04T19:17:44Z</time>
      </trkpt>
      <trkpt lat="59.5455962" lon="17.4773013">
        <ele>39.5513</ele>
        <time>2011-02-04T19:17:48Z</time>
      </trkpt>
      <trkpt lat="59.5455026" lon="17.4769362">
        <ele>36.1868</ele>
        <time>2011-02-04T19:17:51Z</time>
      </trkpt>
      <trkpt lat="59.5455109" lon="17.4764612">
        <ele>34.2642</ele>
        <time>2011-02-04T19:17:55Z</time>
      </trkpt>
      <trkpt lat="59.5454089" lon="17.4759084">
        <ele>30.4188</ele>
        <time>2011-02-04T19:18:01Z</time>
      </trkpt>
      <trkpt lat="59.5453556" lon="17.475758">
        <ele>29.4575</ele>
        <time>2011-02-04T19:18:03Z</time>
      </trkpt>
      <trkpt lat="59.5453612" lon="17.4753085">
        <ele>25.1317</ele>
        <time>2011-02-04T19:18:08Z</time>
      </trkpt>
      <trkpt lat="59.5454833" lon="17.4750516">
        <ele>23.6896</ele>
        <time>2011-02-04T19:18:11Z</time>
      </trkpt>
      <trkpt lat="59.545531" lon="17.4749785">
        <ele>22.7283</ele>
        <time>2011-02-04T19:18:12Z</time>
      </trkpt>
      <trkpt lat="59.5456466" lon="17.4748323">
        <ele>23.209</ele>
        <time>2011-02-04T19:18:14Z</time>
      </trkpt>
      <trkpt lat="59.545856" lon="17.4745738">
        <ele>24.651</ele>
        <time>2011-02-04T19:18:19Z</time>
      </trkpt>
      <trkpt lat="59.5458973" lon="17.4745336">
        <ele>24.651</ele>
        <time>2011-02-04T19:18:20Z</time>
      </trkpt>
      <trkpt lat="59.5461143" lon="17.4743652">
        <ele>26.5736</ele>
        <time>2011-02-04T19:18:25Z</time>
      </trkpt>
      <trkpt lat="59.5461485" lon="17.4741499">
        <ele>27.0543</ele>
        <time>2011-02-04T19:18:29Z</time>
      </trkpt>
      <trkpt lat="59.5460609" lon="17.4739317">
        <ele>25.6123</ele>
        <time>2011-02-04T19:18:32Z</time>
      </trkpt>
      <trkpt lat="59.5460258" lon="17.47341">
        <ele>22.2476</ele>
        <time>2011-02-04T19:18:36Z</time>
      </trkpt>
      <trkpt lat="59.5461347" lon="17.4731136">
        <ele>21.767</ele>
        <time>2011-02-04T19:18:39Z</time>
      </trkpt>
      <trkpt lat="59.5463812" lon="17.4728168">
        <ele>24.651</ele>
        <time>2011-02-04T19:18:45Z</time>
      </trkpt>
      <trkpt lat="59.5464236" lon="17.4727484">
        <ele>27.5349</ele>
        <time>2011-02-04T19:18:47Z</time>
      </trkpt>
      <trkpt lat="59.5464967" lon="17.4726423">
        <ele>28.9769</ele>
        <time>2011-02-04T19:18:50Z</time>
      </trkpt>
      <trkpt lat="59.5466137" lon="17.4725988">
        <ele>31.3801</ele>
        <time>2011-02-04T19:18:54Z</time>
      </trkpt>
      <trkpt lat="59.5466863" lon="17.472589">
        <ele>31.8607</ele>
        <time>2011-02-04T19:18:56Z</time>
      </trkpt>
      <trkpt lat="59.5469195" lon="17.4725727">
        <ele>31.8607</ele>
        <time>2011-02-04T19:19:01Z</time>
      </trkpt>
      <trkpt lat="59.5469643" lon="17.4725786">
        <ele>32.3416</ele>
        <time>2011-02-04T19:19:02Z</time>
      </trkpt>
      <trkpt lat="59.5470494" lon="17.472604">
        <ele>31.8607</ele>
        <time>2011-02-04T19:19:04Z</time>
      </trkpt>
      <trkpt lat="59.5472924" lon="17.4727447">
        <ele>34.7449</ele>
        <time>2011-02-04T19:19:11Z</time>
      </trkpt>
      <trkpt lat="59.5474104" lon="17.472831">
        <ele>35.2255</ele>
        <time>2011-02-04T19:19:15Z</time>
      </trkpt>
      <trkpt lat="59.5474492" lon="17.4728639">
        <ele>35.2255</ele>
        <time>2011-02-04T19:19:17Z</time>
      </trkpt>
      <trkpt lat="59.5476314" lon="17.4730164">
        <ele>37.6287</ele>
        <time>2011-02-04T19:19:23Z</time>
      </trkpt>
      <trkpt lat="59.5477167" lon="17.4731871">
        <ele>39.0707</ele>
        <time>2011-02-04T19:19:27Z</time>
      </trkpt>
      <trkpt lat="59.547783" lon="17.4734111">
        <ele>40.9934</ele>
        <time>2011-02-04T19:19:31Z</time>
      </trkpt>
      <trkpt lat="59.5478259" lon="17.4736774">
        <ele>43.8773</ele>
        <time>2011-02-04T19:19:36Z</time>
      </trkpt>
      <trkpt lat="59.5478295" lon="17.4738978">
        <ele>43.8773</ele>
        <time>2011-02-04T19:19:40Z</time>
      </trkpt>
      <trkpt lat="59.5478457" lon="17.4741087">
        <ele>41.9547</ele>
        <time>2011-02-04T19:19:43Z</time>
      </trkpt>
      <trkpt lat="59.5477457" lon="17.4743818">
        <ele>37.6287</ele>
        <time>2011-02-04T19:19:48Z</time>
      </trkpt>
      <trkpt lat="59.5475763" lon="17.4746412">
        <ele>38.5901</ele>
        <time>2011-02-04T19:19:53Z</time>
      </trkpt>
      <trkpt lat="59.5474607" lon="17.4747593">
        <ele>39.0707</ele>
        <time>2011-02-04T19:19:57Z</time>
      </trkpt>
      <trkpt lat="59.5473032" lon="17.4748505">
        <ele>42.916</ele>
        <time>2011-02-04T19:20:03Z</time>
      </trkpt>
      <trkpt lat="59.5472093" lon="17.474904">
        <ele>43.8773</ele>
        <time>2011-02-04T19:20:08Z</time>
      </trkpt>
      <trkpt lat="59.547117" lon="17.4750984">
        <ele>43.8773</ele>
        <time>2011-02-04T19:20:13Z</time>
      </trkpt>
      <trkpt lat="59.5470809" lon="17.4753218">
        <ele>43.8773</ele>
        <time>2011-02-04T19:20:18Z</time>
      </trkpt>
      <trkpt lat="59.5469961" lon="17.4755591">
        <ele>42.916</ele>
        <time>2011-02-04T19:20:23Z</time>
      </trkpt>
      <trkpt lat="59.5469397" lon="17.4757603">
        <ele>42.916</ele>
        <time>2011-02-04T19:20:27Z</time>
      </trkpt>
      <trkpt lat="59.5468679" lon="17.4759732">
        <ele>41.9547</ele>
        <time>2011-02-04T19:20:31Z</time>
      </trkpt>
      <trkpt lat="59.5468309" lon="17.4760684">
        <ele>42.4354</ele>
        <time>2011-02-04T19:20:33Z</time>
      </trkpt>
      <trkpt lat="59.5467426" lon="17.476194">
        <ele>40.9934</ele>
        <time>2011-02-04T19:20:36Z</time>
      </trkpt>
      <trkpt lat="59.5467376" lon="17.4764751">
        <ele>40.5128</ele>
        <time>2011-02-04T19:20:40Z</time>
      </trkpt>
      <trkpt lat="59.5467982" lon="17.4766689">
        <ele>41.474</ele>
        <time>2011-02-04T19:20:42Z</time>
      </trkpt>
      <trkpt lat="59.5468655" lon="17.4768839">
        <ele>41.9547</ele>
        <time>2011-02-04T19:20:44Z</time>
      </trkpt>
      <trkpt lat="59.5468834" lon="17.4774003">
        <ele>40.5128</ele>
        <time>2011-02-04T19:20:48Z</time>
      </trkpt>
      <trkpt lat="59.5468365" lon="17.4776132">
        <ele>39.5513</ele>
        <time>2011-02-04T19:20:50Z</time>
      </trkpt>
      <trkpt lat="59.5467661" lon="17.4778376">
        <ele>38.5901</ele>
        <time>2011-02-04T19:20:53Z</time>
      </trkpt>
      <trkpt lat="59.5466412" lon="17.4779867">
        <ele>38.5901</ele>
        <time>2011-02-04T19:20:57Z</time>
      </trkpt>
      <trkpt lat="59.5465245" lon="17.4781633">
        <ele>37.6287</ele>
        <time>2011-02-04T19:21:02Z</time>
      </trkpt>
      <trkpt lat="59.5464654" lon="17.4783451">
        <ele>37.1481</ele>
        <time>2011-02-04T19:21:07Z</time>
      </trkpt>
      <trkpt lat="59.5464442" lon="17.4786144">
        <ele>36.6675</ele>
        <time>2011-02-04T19:21:10Z</time>
      </trkpt>
      <trkpt lat="59.5464457" lon="17.4790641">
        <ele>37.6287</ele>
        <time>2011-02-04T19:21:15Z</time>
      </trkpt>
      <trkpt lat="59.5464457" lon="17.4792479">
        <ele>36.6675</ele>
        <time>2011-02-04T19:21:17Z</time>
      </trkpt>
      <trkpt lat="59.5464682" lon="17.4794191">
        <ele>37.6287</ele>
        <time>2011-02-04T19:21:19Z</time>
      </trkpt>
      <trkpt lat="59.5464583" lon="17.4798857">
        <ele>38.1094</ele>
        <time>2011-02-04T19:21:24Z</time>
      </trkpt>
      <trkpt lat="59.5464407" lon="17.4801279">
        <ele>39.0707</ele>
        <time>2011-02-04T19:21:27Z</time>
      </trkpt>
      <trkpt lat="59.5464483" lon="17.4804923">
        <ele>39.0707</ele>
        <time>2011-02-04T19:21:31Z</time>
      </trkpt>
      <trkpt lat="59.5464822" lon="17.4806594">
        <ele>38.1094</ele>
        <time>2011-02-04T19:21:33Z</time>
      </trkpt>
      <trkpt lat="59.5465904" lon="17.4808519">
        <ele>39.5513</ele>
        <time>2011-02-04T19:21:37Z</time>
      </trkpt>
      <trkpt lat="59.5466664" lon="17.4809062">
        <ele>38.5901</ele>
        <time>2011-02-04T19:21:39Z</time>
      </trkpt>
      <trkpt lat="59.5468204" lon="17.4810087">
        <ele>39.5513</ele>
        <time>2011-02-04T19:21:43Z</time>
      </trkpt>
      <trkpt lat="59.5470142" lon="17.481029">
        <ele>38.1094</ele>
        <time>2011-02-04T19:21:50Z</time>
      </trkpt>
      <trkpt lat="59.547154" lon="17.4809164">
        <ele>37.6287</ele>
        <time>2011-02-04T19:21:55Z</time>
      </trkpt>
      <trkpt lat="59.5473467" lon="17.4806346">
        <ele>37.6287</ele>
        <time>2011-02-04T19:22:01Z</time>
      </trkpt>
      <trkpt lat="59.5474108" lon="17.4804907">
        <ele>38.5901</ele>
        <time>2011-02-04T19:22:03Z</time>
      </trkpt>
      <trkpt lat="59.5475183" lon="17.480212">
        <ele>38.1094</ele>
        <time>2011-02-04T19:22:07Z</time>
      </trkpt>
      <trkpt lat="59.5476192" lon="17.4798565">
        <ele>37.1481</ele>
        <time>2011-02-04T19:22:11Z</time>
      </trkpt>
      <trkpt lat="59.5477027" lon="17.4795809">
        <ele>36.1868</ele>
        <time>2011-02-04T19:22:14Z</time>
      </trkpt>
      <trkpt lat="59.5477772" lon="17.4792359">
        <ele>36.1868</ele>
        <time>2011-02-04T19:22:17Z</time>
      </trkpt>
      <trkpt lat="59.5479586" lon="17.4790124">
        <ele>35.7061</ele>
        <time>2011-02-04T19:22:21Z</time>
      </trkpt>
      <trkpt lat="59.5481123" lon="17.4791325">
        <ele>36.1868</ele>
        <time>2011-02-04T19:22:24Z</time>
      </trkpt>
      <trkpt lat="59.5481826" lon="17.4792599">
        <ele>36.1868</ele>
        <time>2011-02-04T19:22:26Z</time>
      </trkpt>
      <trkpt lat="59.5483052" lon="17.479695">
        <ele>36.1868</ele>
        <time>2011-02-04T19:22:30Z</time>
      </trkpt>
      <trkpt lat="59.5482508" lon="17.4802089">
        <ele>32.3416</ele>
        <time>2011-02-04T19:22:35Z</time>
      </trkpt>
      <trkpt lat="59.5481785" lon="17.4804633">
        <ele>32.8223</ele>
        <time>2011-02-04T19:22:38Z</time>
      </trkpt>
      <trkpt lat="59.5481606" lon="17.4805295">
        <ele>33.3029</ele>
        <time>2011-02-04T19:22:39Z</time>
      </trkpt>
      <trkpt lat="59.5481086" lon="17.4807237">
        <ele>34.7449</ele>
        <time>2011-02-04T19:22:42Z</time>
      </trkpt>
      <trkpt lat="59.5480254" lon="17.4809607">
        <ele>33.7834</ele>
        <time>2011-02-04T19:22:47Z</time>
      </trkpt>
      <trkpt lat="59.5480134" lon="17.4811945">
        <ele>33.3029</ele>
        <time>2011-02-04T19:22:51Z</time>
      </trkpt>
      <trkpt lat="59.5479918" lon="17.4814733">
        <ele>32.3416</ele>
        <time>2011-02-04T19:22:55Z</time>
      </trkpt>
      <trkpt lat="59.5479725" lon="17.4818147">
        <ele>32.3416</ele>
        <time>2011-02-04T19:22:59Z</time>
      </trkpt>
      <trkpt lat="59.5479168" lon="17.482135">
        <ele>35.2255</ele>
        <time>2011-02-04T19:23:03Z</time>
      </trkpt>
      <trkpt lat="59.5478808" lon="17.4822851">
        <ele>34.7449</ele>
        <time>2011-02-04T19:23:05Z</time>
      </trkpt>
      <trkpt lat="59.5477943" lon="17.4825602">
        <ele>34.7449</ele>
        <time>2011-02-04T19:23:09Z</time>
      </trkpt>
      <trkpt lat="59.5477345" lon="17.4826627">
        <ele>34.7449</ele>
        <time>2011-02-04T19:23:11Z</time>
      </trkpt>
      <trkpt lat="59.5475518" lon="17.4828886">
        <ele>37.6287</ele>
        <time>2011-02-04T19:23:17Z</time>
      </trkpt>
      <trkpt lat="59.5473892" lon="17.4830516">
        <ele>38.1094</ele>
        <time>2011-02-04T19:23:21Z</time>
      </trkpt>
      <trkpt lat="59.5472605" lon="17.4833189">
        <ele>41.9547</ele>
        <time>2011-02-04T19:23:25Z</time>
      </trkpt>
      <trkpt lat="59.547239" lon="17.4836466">
        <ele>43.3966</ele>
        <time>2011-02-04T19:23:29Z</time>
      </trkpt>
      <trkpt lat="59.5472859" lon="17.484067">
        <ele>43.3966</ele>
        <time>2011-02-04T19:23:34Z</time>
      </trkpt>
      <trkpt lat="59.5473073" lon="17.4842287">
        <ele>44.358</ele>
        <time>2011-02-04T19:23:36Z</time>
      </trkpt>
      <trkpt lat="59.5473991" lon="17.4845236">
        <ele>45.3192</ele>
        <time>2011-02-04T19:23:40Z</time>
      </trkpt>
      <trkpt lat="59.5474804" lon="17.4847963">
        <ele>42.4354</ele>
        <time>2011-02-04T19:23:44Z</time>
      </trkpt>
      <trkpt lat="59.5475337" lon="17.4850664">
        <ele>40.0321</ele>
        <time>2011-02-04T19:23:48Z</time>
      </trkpt>
      <trkpt lat="59.5475423" lon="17.4851369">
        <ele>40.0321</ele>
        <time>2011-02-04T19:23:49Z</time>
      </trkpt>
      <trkpt lat="59.5476643" lon="17.4853989">
        <ele>37.6287</ele>
        <time>2011-02-04T19:23:54Z</time>
      </trkpt>
      <trkpt lat="59.547827" lon="17.4854319">
        <ele>35.2255</ele>
        <time>2011-02-04T19:23:58Z</time>
      </trkpt>
      <trkpt lat="59.5478762" lon="17.4854336">
        <ele>34.7449</ele>
        <time>2011-02-04T19:23:59Z</time>
      </trkpt>
      <trkpt lat="59.5481185" lon="17.4853651">
        <ele>33.3029</ele>
        <time>2011-02-04T19:24:04Z</time>
      </trkpt>
      <trkpt lat="59.5482196" lon="17.485398">
        <ele>31.8607</ele>
        <time>2011-02-04T19:24:07Z</time>
      </trkpt>
      <trkpt lat="59.5482547" lon="17.4854423">
        <ele>30.8995</ele>
        <time>2011-02-04T19:24:08Z</time>
      </trkpt>
      <trkpt lat="59.5483298" lon="17.4855251">
        <ele>31.3801</ele>
        <time>2011-02-04T19:24:10Z</time>
      </trkpt>
      <trkpt lat="59.5484512" lon="17.485707">
        <ele>32.8223</ele>
        <time>2011-02-04T19:24:13Z</time>
      </trkpt>
      <trkpt lat="59.5485433" lon="17.4859069">
        <ele>34.2642</ele>
        <time>2011-02-04T19:24:16Z</time>
      </trkpt>
      <trkpt lat="59.5486754" lon="17.4862816">
        <ele>37.6287</ele>
        <time>2011-02-04T19:24:21Z</time>
      </trkpt>
      <trkpt lat="59.548693" lon="17.4865489">
        <ele>37.6287</ele>
        <time>2011-02-04T19:24:24Z</time>
      </trkpt>
      <trkpt lat="59.5487371" lon="17.4868544">
        <ele>37.1481</ele>
        <time>2011-02-04T19:24:28Z</time>
      </trkpt>
      <trkpt lat="59.5488429" lon="17.4871294">
        <ele>40.0321</ele>
        <time>2011-02-04T19:24:32Z</time>
      </trkpt>
      <trkpt lat="59.5489515" lon="17.4873997">
        <ele>40.9934</ele>
        <time>2011-02-04T19:24:35Z</time>
      </trkpt>
      <trkpt lat="59.5490676" lon="17.4877912">
        <ele>42.4354</ele>
        <time>2011-02-04T19:24:39Z</time>
      </trkpt>
      <trkpt lat="59.5491073" lon="17.4882325">
        <ele>42.4354</ele>
        <time>2011-02-04T19:24:44Z</time>
      </trkpt>
      <trkpt lat="59.5491163" lon="17.4884354">
        <ele>40.0321</ele>
        <time>2011-02-04T19:24:47Z</time>
      </trkpt>
      <trkpt lat="59.5491169" lon="17.4885844">
        <ele>39.5513</ele>
        <time>2011-02-04T19:24:49Z</time>
      </trkpt>
      <trkpt lat="59.549144" lon="17.4888412">
        <ele>39.0707</ele>
        <time>2011-02-04T19:24:53Z</time>
      </trkpt>
      <trkpt lat="59.5492083" lon="17.489044">
        <ele>40.9934</ele>
        <time>2011-02-04T19:24:56Z</time>
      </trkpt>
      <trkpt lat="59.5492773" lon="17.4892368">
        <ele>40.9934</ele>
        <time>2011-02-04T19:24:58Z</time>
      </trkpt>
      <trkpt lat="59.5495389" lon="17.4896764">
        <ele>40.5128</ele>
        <time>2011-02-04T19:25:03Z</time>
      </trkpt>
      <trkpt lat="59.5496064" lon="17.489756">
        <ele>40.5128</ele>
        <time>2011-02-04T19:25:04Z</time>
      </trkpt>
      <trkpt lat="59.549732" lon="17.4901887">
        <ele>37.6287</ele>
        <time>2011-02-04T19:25:08Z</time>
      </trkpt>
      <trkpt lat="59.5497182" lon="17.4904085">
        <ele>34.7449</ele>
        <time>2011-02-04T19:25:10Z</time>
      </trkpt>
      <trkpt lat="59.5496556" lon="17.4907831">
        <ele>30.4188</ele>
        <time>2011-02-04T19:25:14Z</time>
      </trkpt>
      <trkpt lat="59.5495944" lon="17.4909776">
        <ele>29.4575</ele>
        <time>2011-02-04T19:25:16Z</time>
      </trkpt>
      <trkpt lat="59.5494328" lon="17.4913778">
        <ele>28.4962</ele>
        <time>2011-02-04T19:25:20Z</time>
      </trkpt>
      <trkpt lat="59.5492248" lon="17.4918673">
        <ele>26.5736</ele>
        <time>2011-02-04T19:25:26Z</time>
      </trkpt>
      <trkpt lat="59.5491716" lon="17.4921243">
        <ele>26.0929</ele>
        <time>2011-02-04T19:25:29Z</time>
      </trkpt>
      <trkpt lat="59.5490348" lon="17.4924179">
        <ele>26.0929</ele>
        <time>2011-02-04T19:25:33Z</time>
      </trkpt>
      <trkpt lat="59.5488619" lon="17.4926648">
        <ele>26.5736</ele>
        <time>2011-02-04T19:25:37Z</time>
      </trkpt>
      <trkpt lat="59.5486909" lon="17.4929481">
        <ele>28.0155</ele>
        <time>2011-02-04T19:25:41Z</time>
      </trkpt>
      <trkpt lat="59.5485076" lon="17.4930856">
        <ele>26.0929</ele>
        <time>2011-02-04T19:25:45Z</time>
      </trkpt>
    </trkseg>
  </trk>
</gpx>